PORTS® Data Listing: 8454049 Quonset Point, RI

CO-OPS RAW PORTS DATA

************************      PRELIMINARY DATA      ************************** 

     THIS RAW DATA HAS NOT BEEN SUBJECT TO THE NATIONAL OCEAN SERVICE'S        
     QUALITY CONTROL OR QUALITY ASSURANCE PROCEDURES AND DOES NOT MEET         
     THE CRITERIA AND STANDARDS OF OFFICIAL NATIONAL OCEAN SERVICE             
     DATA.  IT IS RELEASED FOR LIMITED PUBLIC USE AS PRELIMINARY DATA TO       
     BE USED ONLY WITH APPROPRIATE CAUTION.                                    

************************      PRELIMINARY DATA      ************************** 


       CD   -   Calendar date
       T    -   Time
       TZ   -   Timezone
       PW   -   Predicted water level (feet above MLLW)
       OW   -   Observed water level (feet above MLLW)
       WS   -   Wind speed (knots)
       WD   -   Wind direction (degrees true)
       WG   -   Wind gust (knots)
       AT   -   Air temperature (degrees farenheit)
       WT   -   Water temperature (degrees farenheit)
       AP   -   Air pressure (millibars)
       SA   -   Salinty (PSU - Practical Salinity Units)
       SG   -   Specific gravity
       RH   -   Relative humidity
       AG   -   Air gap (feet)
       VI   -   Visibility (nautical miles)

       ** NOTE **
       A variable that has its data fields filled with "9"s, indicates that
       data was not collected for that sample period.
       **********


STATION NAME: Quonset Point (8454049)
****************************************************************************************************
    CD       T    TZ    PW     OW    WS   WD   WG    AT    WT    AP    SA    SG     RH    AG   VI
****************************************************************************************************
2020/01/24 20:42 EST    3.37   3.56    7   25    8  37.9  38.5 1028.9 21.6  1.018 -99.9 -99.99 -9.99
2020/01/24 20:48 EST    3.30   3.50    8   26    9  37.9  38.5 1028.8 21.6  1.018 -99.9 -99.99 -9.99
2020/01/24 20:54 EST    3.22   3.45    8   23    9  37.8  38.5 1028.9 21.6  1.018 -99.9 -99.99 -9.99
2020/01/24 21:00 EST    3.14   3.37    7   16    8  37.8  38.5 1028.9 21.7  1.018 -99.9 -99.99 -9.99
2020/01/24 21:06 EST    3.05   3.30    6    9    8  37.2  38.7 1028.9 21.7  1.018 -99.9 -99.99 -9.99
2020/01/24 21:12 EST    2.96   3.21    7    7    7  36.9  38.7 1028.9 21.7  1.018 -99.9 -99.99 -9.99
2020/01/24 21:18 EST    2.86   3.11    8   19    9  37.4  38.8 1028.8 21.7  1.018 -99.9 -99.99 -9.99
2020/01/24 21:24 EST    2.75   2.98    8   16   10  37.4  38.7 1028.7 21.8  1.018 -99.9 -99.99 -9.99
2020/01/24 21:30 EST    2.64   2.89    9   17   10  37.2  38.7 1028.7 21.8  1.018 -99.9 -99.99 -9.99
2020/01/24 21:36 EST    2.53   2.80    7   16   10  37.2  38.7 1028.8 21.8  1.018 -99.9 -99.99 -9.99
2020/01/24 21:42 EST    2.41   2.69    9   23   10  37.4  38.7 1028.7 21.8  1.018 -99.9 -99.99 -9.99
2020/01/24 21:48 EST    2.29   2.58    9   26   11  37.4  38.8 1028.7 21.7  1.018 -99.9 -99.99 -9.99
2020/01/24 21:54 EST    2.17   2.47    9   29   11  37.4  38.8 1028.7 21.7  1.018 -99.9 -99.99 -9.99
2020/01/24 22:00 EST    2.05   2.38    9   29   11  37.4  38.8 1028.7 21.7  1.018 -99.9 -99.99 -9.99
2020/01/24 22:06 EST    1.92   2.27    8   27    9  37.4  38.8 1028.8 21.7  1.018 -99.9 -99.99 -9.99
2020/01/24 22:12 EST    1.80   2.15    8   35    9  37.6  38.7 1028.8 21.8  1.018 -99.9 -99.99 -9.99
2020/01/24 22:18 EST    1.67   2.06    7   26    9  37.4  38.7 1028.9 21.8  1.018 -99.9 -99.99 -9.99
2020/01/24 22:24 EST    1.54   1.94    7   28    8  37.4  38.8 1028.9 21.8  1.018 -99.9 -99.99 -9.99
2020/01/24 22:30 EST    1.42   1.83    7   23    8  37.4  38.8 1028.8 21.8  1.018 -99.9 -99.99 -9.99
2020/01/24 22:36 EST    1.29   1.71    7   23    8  37.2  38.7 1028.8 21.8  1.018 -99.9 -99.99 -9.99
2020/01/24 22:42 EST    1.17   1.61    7   22    8  37.2  38.7 1028.7 21.8  1.018 -99.9 -99.99 -9.99
2020/01/24 22:48 EST    1.05   1.49    7   18    8  37.0  38.7 1028.7 21.8  1.018 -99.9 -99.99 -9.99
2020/01/24 22:54 EST    0.94   1.37    7   13    8  37.0  38.5 1028.7 21.8  1.018 -99.9 -99.99 -9.99
2020/01/24 23:00 EST    0.83   1.25    6   10    8  37.0  38.7 1028.7 21.7  1.018 -99.9 -99.99 -9.99
2020/01/24 23:06 EST    0.72   1.12    6   14    8  37.0  38.7 1028.7 21.7  1.018 -99.9 -99.99 -9.99
2020/01/24 23:12 EST    0.61   1.04    8   18    9  37.0  38.7 1028.6 21.7  1.018 -99.9 -99.99 -9.99
2020/01/24 23:18 EST    0.51   0.97    8   13    9  37.0  38.7 1028.4 21.7  1.018 -99.9 -99.99 -9.99
2020/01/24 23:24 EST    0.42   0.88    8   17    9  36.9  38.7 1028.4 21.7  1.018 -99.9 -99.99 -9.99
2020/01/24 23:30 EST    0.33   0.81    8   16   10  36.9  38.5 1028.2 21.8  1.018 -99.9 -99.99 -9.99
2020/01/24 23:36 EST    0.25   0.71    9   13   10  36.9  38.5 1028.1 21.8  1.018 -99.9 -99.99 -9.99
2020/01/24 23:42 EST    0.17   0.61    8   19   10  36.9  38.7 1028.0 21.8  1.018 -99.9 -99.99 -9.99
2020/01/24 23:48 EST    0.10   0.55    9   20   10  36.9  38.7 1027.9 21.8  1.018 -99.9 -99.99 -9.99
2020/01/24 23:54 EST    0.04   0.45    9   18   10  36.7  38.7 1027.8 21.8  1.018 -99.9 -99.99 -9.99
2020/01/25 00:00 EST   -0.02   0.41    9   19   10  36.7  38.7 1027.7 21.8  1.018 -99.9 -99.99 -9.99
2020/01/25 00:06 EST   -0.07   0.35    8   16   10  36.7  38.7 1027.6 21.9  1.018 -99.9 -99.99 -9.99
2020/01/25 00:12 EST   -0.11   0.29    9   12   11  36.7  38.5 1027.4 21.9  1.018 -99.9 -99.99 -9.99
2020/01/25 00:18 EST   -0.15   0.22    9   14   10  36.7  38.5 1027.4 21.8  1.018 -99.9 -99.99 -9.99
2020/01/25 00:24 EST   -0.18   0.16   10   10   11  36.7  38.7 1027.3 21.8  1.018 -99.9 -99.99 -9.99
2020/01/25 00:30 EST   -0.21   0.14    9   16   10  36.7  38.7 1027.3 21.9  1.018 -99.9 -99.99 -9.99
2020/01/25 00:36 EST   -0.22   0.11   10   16   11  36.7  38.7 1027.1 21.8  1.018 -99.9 -99.99 -9.99
2020/01/25 00:42 EST   -0.24   0.08   10   12   12  36.9  38.7 1027.1 21.9  1.018 -99.9 -99.99 -9.99
2020/01/25 00:48 EST   -0.25   0.08    9   14   12  36.9  38.7 1027.1 21.8  1.018 -99.9 -99.99 -9.99
2020/01/25 00:54 EST   -0.25   0.09   10   17   11  36.9  38.7 1027.1 21.7  1.018 -99.9 -99.99 -9.99
2020/01/25 01:00 EST   -0.25   0.07    9   15   11  36.9  38.7 1027.1 21.8  1.018 -99.9 -99.99 -9.99
2020/01/25 01:06 EST   -0.24   0.07   10   19   11  36.7  38.5 1026.9 21.8  1.018 -99.9 -99.99 -9.99
2020/01/25 01:12 EST   -0.23   0.08   11   20   12  36.9  38.5 1026.9 21.8  1.018 -99.9 -99.99 -9.99
2020/01/25 01:18 EST   -0.22   0.13   10   17   11  36.7  38.5 1026.9 21.8  1.018 -99.9 -99.99 -9.99
2020/01/25 01:24 EST   -0.20   0.17    9   12   11  36.7  38.5 1026.8 21.8  1.018 -99.9 -99.99 -9.99
2020/01/25 01:30 EST   -0.17   0.18    9   14   11  36.5  38.3 1026.8 21.8  1.018 -99.9 -99.99 -9.99
2020/01/25 01:36 EST   -0.15   0.24    9   12   11  36.5  38.3 1026.8 21.8  1.018 -99.9 -99.99 -9.99
2020/01/25 01:42 EST   -0.12   0.27   10   10   11  36.3  38.5 1026.8 21.7  1.018 -99.9 -99.99 -9.99
2020/01/25 01:48 EST   -0.09   0.27   10   10   11  36.3  38.3 1026.8 21.8  1.018 -99.9 -99.99 -9.99
2020/01/25 01:54 EST   -0.06   0.29    9   10   11  36.3  38.3 1026.9 21.8  1.018 -99.9 -99.99 -9.99
2020/01/25 02:00 EST   -0.03   0.35    9   11   10  36.5  38.3 1026.9 21.8  1.018 -99.9 -99.99 -9.99
2020/01/25 02:06 EST    0.01   0.42    9   13   10  36.5  38.3 1026.8 21.8  1.018 -99.9 -99.99 -9.99
2020/01/25 02:12 EST    0.05   0.47    9   19   11  36.5  38.3 1026.8 21.8  1.018 -99.9 -99.99 -9.99
2020/01/25 02:18 EST    0.08   0.54    9   16   11  36.5  38.3 1026.8 21.7  1.018 -99.9 -99.99 -9.99
2020/01/25 02:24 EST    0.12   0.60    8   14   11  36.5  38.3 1026.8 21.7  1.018 -99.9 -99.99 -9.99
2020/01/25 02:30 EST    0.16   0.65    9   13   10  36.5  38.3 1026.7 21.7  1.018 -99.9 -99.99 -9.99
2020/01/25 02:36 EST    0.21   0.69    9   18   11  36.5  38.3 1026.5 21.7  1.018 -99.9 -99.99 -9.99
2020/01/25 02:42 EST    0.25   0.77    9   16   11  36.5  38.3 1026.4 21.7  1.018 -99.9 -99.99 -9.99
2020/01/25 02:48 EST    0.29   0.82    9   13   11  36.5  38.1 1026.4 21.8  1.018 -99.9 -99.99 -9.99
2020/01/25 02:54 EST    0.34   0.86    8    7   11  36.1  38.1 1026.5 21.7  1.018 -99.9 -99.99 -9.99
2020/01/25 03:00 EST    0.38   0.91    9    7   10  36.3  38.1 1026.4 21.7  1.018 -99.9 -99.99 -9.99
2020/01/25 03:06 EST    0.43   0.97   10   11   11  36.5  38.1 1026.3 21.8  1.018 -99.9 -99.99 -9.99
2020/01/25 03:12 EST    0.48   1.05   10   12   12  36.5  38.1 1026.2 21.8  1.018 -99.9 -99.99 -9.99
2020/01/25 03:18 EST    0.53   1.15   10    8   12  36.3  38.1 1026.3 21.8  1.018 -99.9 -99.99 -9.99
2020/01/25 03:24 EST    0.58   1.23   11    8   12  36.3  38.1 1026.2 21.7  1.018 -99.9 -99.99 -9.99
2020/01/25 03:30 EST    0.63   1.27   10    6   12  36.1  38.1 1026.2 21.7  1.018 -99.9 -99.99 -9.99
2020/01/25 03:36 EST    0.69   1.35   11    9   12  36.3  38.1 1026.1 21.7  1.018 -99.9 -99.99 -9.99
2020/01/25 03:42 EST    0.74   1.39   11   10   13  36.5  38.1 1026.2 21.7  1.018 -99.9 -99.99 -9.99
2020/01/25 03:48 EST    0.80   1.41   10    8   12  36.3  38.1 1026.2 21.7  1.018 -99.9 -99.99 -9.99
2020/01/25 03:54 EST    0.86   1.48   11    9   12  36.5  38.1 1026.1 21.7  1.018 -99.9 -99.99 -9.99
2020/01/25 04:00 EST    0.93   1.58   10   10   12  36.3  38.1 1026.0 21.7  1.018 -99.9 -99.99 -9.99
2020/01/25 04:06 EST    0.99   1.63   10   10   12  36.3  38.1 1026.0 21.7  1.018 -99.9 -99.99 -9.99
2020/01/25 04:12 EST    1.06   1.68    9   14   11  36.5  38.1 1026.0 21.7  1.018 -99.9 -99.99 -9.99
2020/01/25 04:18 EST    1.14   1.77    9   11   11  36.7  38.1 1025.9 21.7  1.018 -99.9 -99.99 -9.99
2020/01/25 04:24 EST    1.21   1.85   10   19   11  36.9  38.1 1025.9 21.7  1.018 -99.9 -99.99 -9.99
2020/01/25 04:30 EST    1.29   1.93    9   15   11  36.9  38.1 1025.7 21.7  1.018 -99.9 -99.99 -9.99
2020/01/25 04:36 EST    1.37   1.97    9   16   12  36.9  38.1 1025.6 21.7  1.018 -99.9 -99.99 -9.99
2020/01/25 04:42 EST    1.45   2.04   11   21   12  36.7  38.1 1025.5 21.8  1.018 -99.9 -99.99 -9.99
2020/01/25 04:48 EST    1.54   2.13   10   16   12  36.7  38.1 1025.6 21.8  1.018 -99.9 -99.99 -9.99
2020/01/25 04:54 EST    1.63   2.18    9   17   11  36.7  38.1 1025.5 21.7  1.018 -99.9 -99.99 -9.99
2020/01/25 05:00 EST    1.72   2.24   10   20   11  36.7  38.1 1025.4 21.7  1.018 -99.9 -99.99 -9.99
2020/01/25 05:06 EST    1.81   2.33   10   22   11  36.7  38.1 1025.3 21.7  1.018 -99.9 -99.99 -9.99
2020/01/25 05:12 EST    1.91   2.40   10   25   11  36.7  38.1 1025.3 21.7  1.018 -99.9 -99.99 -9.99
2020/01/25 05:18 EST    2.01   2.48    9   18   11  36.7  38.1 1025.4 21.7  1.018 -99.9 -99.99 -9.99
2020/01/25 05:24 EST    2.11   2.57   11   24   12  36.9  38.1 1025.2 21.8  1.018 -99.9 -99.99 -9.99
2020/01/25 05:30 EST    2.21   2.68   10   23   11  36.9  37.9 1025.0 21.8  1.018 -99.9 -99.99 -9.99
2020/01/25 05:36 EST    2.31   2.78   11   27   12  36.9  37.9 1024.9 21.8  1.018 -99.9 -99.99 -9.99
2020/01/25 05:42 EST    2.41   2.85   11   24   12  37.0  37.9 1024.9 21.8  1.018 -99.9 -99.99 -9.99
2020/01/25 05:48 EST    2.51   2.96   10   25   12  37.0  37.9 1024.9 21.8  1.018 -99.9 -99.99 -9.99
2020/01/25 05:54 EST    2.62   3.07   10   33   12  37.2  37.9 1024.8 21.7  1.018 -99.9 -99.99 -9.99
2020/01/25 06:00 EST    2.72   3.17   12   37   14  37.4  37.9 1024.8 21.7  1.018 -99.9 -99.99 -9.99
2020/01/25 06:06 EST    2.82   3.25   11   38   13  37.6  37.9 1024.9 21.8  1.018 -99.9 -99.99 -9.99
2020/01/25 06:12 EST    2.92   3.35   12   42   13  37.8  37.9 1024.9 21.7  1.018 -99.9 -99.99 -9.99
2020/01/25 06:18 EST    3.02   3.45   11   41   13  37.8  37.9 1024.9 21.7  1.018 -99.9 -99.99 -9.99
2020/01/25 06:24 EST    3.12   3.52   12   42   14  37.8  37.9 1024.7 21.7  1.018 -99.9 -99.99 -9.99
2020/01/25 06:30 EST    3.21   3.63   12   43   14  37.8  37.9 1024.6 21.7  1.018 -99.9 -99.99 -9.99
2020/01/25 06:36 EST    3.31   3.74   12   39   14  37.9  37.9 1024.5 21.6  1.018 -99.9 -99.99 -9.99
2020/01/25 06:42 EST    3.40   3.81   12   41   13  38.1  37.9 1024.2 21.6  1.018 -99.9 -99.99 -9.99
2020/01/25 06:48 EST    3.48   3.89   12   43   14  38.1  37.9 1024.2 21.7  1.018 -99.9 -99.99 -9.99
2020/01/25 06:54 EST    3.56   3.95   12   45   13  38.1  37.9 1024.2 21.3  1.018 -99.9 -99.99 -9.99
2020/01/25 07:00 EST    3.64   4.03   11   47   13  38.3  37.9 1024.4 21.4  1.018 -99.9 -99.99 -9.99
2020/01/25 07:06 EST    3.71   4.11   11   47   13  38.5  37.8 1024.5 21.6  1.018 -99.9 -99.99 -9.99
2020/01/25 07:12 EST    3.78   4.23   11   46   13  38.5  37.9 1024.3 21.5  1.018 -99.9 -99.99 -9.99
2020/01/25 07:18 EST    3.84   4.35   11   49   13  38.7  37.9 1024.3 21.5  1.018 -99.9 -99.99 -9.99
2020/01/25 07:24 EST    3.90   4.46   11   48   13  38.7  37.9 1024.3 21.5  1.018 -99.9 -99.99 -9.99
2020/01/25 07:30 EST    3.95   4.51    9   51   11  38.7  37.9 1024.3 21.5  1.018 -99.9 -99.99 -9.99
2020/01/25 07:36 EST    4.00   4.63   10   54   11  38.8  37.8 1024.3 21.6  1.018 -99.9 -99.99 -9.99
2020/01/25 07:42 EST    4.04   4.69   10   57   12  39.0  37.8 1024.3 21.7  1.018 -99.9 -99.99 -9.99
2020/01/25 07:48 EST    4.07   4.76    9   60   12  39.2  37.8 1024.3 21.8  1.018 -99.9 -99.99 -9.99
2020/01/25 07:54 EST    4.09   4.79   11   65   12  39.4  37.8 1024.4 21.8  1.018 -99.9 -99.99 -9.99
2020/01/25 08:00 EST    4.11   4.80   11   69   13  39.4  37.8 1024.4 21.8  1.018 -99.9 -99.99 -9.99
2020/01/25 08:06 EST    4.12   4.82   11   70   14  39.6  37.8 1024.4 21.8  1.018 -99.9 -99.99 -9.99
2020/01/25 08:12 EST    4.13   4.82   12   74   16  39.7  37.9 1024.4 21.7  1.018 -99.9 -99.99 -9.99
2020/01/25 08:18 EST    4.13   4.85   12   64   16  39.6  37.9 1024.3 21.7  1.018 -99.9 -99.99 -9.99
2020/01/25 08:24 EST    4.12   4.85   11   63   14  39.6  37.9 1024.3 21.8  1.018 -99.9 -99.99 -9.99
2020/01/25 08:30 EST    4.10   4.89   10   65   12  39.6  38.1 1024.3 21.7  1.018 -99.9 -99.99 -9.99
2020/01/25 08:36 EST    4.07   4.87   11   61   12  39.7  38.1 1024.2 21.7  1.018 -99.9 -99.99 -9.99
2020/01/25 08:42 EST    4.04   4.86   10   58   12  39.9  38.1 1024.4 21.7  1.018 -99.9 -99.99 -9.99
2020/01/25 08:48 EST    4.00   4.82   10   58   11  39.9  38.1 1024.2 21.7  1.018 -99.9 -99.99 -9.99
2020/01/25 08:54 EST    3.95   4.83   10   62   12  39.9  38.1 1024.1 21.7  1.018 -99.9 -99.99 -9.99
2020/01/25 09:00 EST    3.90   4.78   10   62   12  40.1  38.1 1024.1 21.7  1.018 -99.9 -99.99 -9.99
2020/01/25 09:06 EST    3.84   4.76    9   57   11  40.3  38.1 1024.0 21.7  1.018 -99.9 -99.99 -9.99
2020/01/25 09:12 EST    3.77   4.71    9   55   11  40.3  38.1 1024.0 21.7  1.018 -99.9 -99.99 -9.99
2020/01/25 09:18 EST    3.70   4.60    8   49   10  40.5  38.1 1023.9 21.7  1.018 -99.9 -99.99 -9.99
2020/01/25 09:24 EST    3.61   4.50   10   58   13  40.8  38.3 1023.9 21.6  1.018 -99.9 -99.99 -9.99
2020/01/25 09:30 EST    3.53   4.42    9   52   11  40.8  38.3 1023.7 21.7  1.018 -99.9 -99.99 -9.99
2020/01/25 09:36 EST    3.43   4.36   10   57   13  41.0  38.3 1023.6 21.7  1.018 -99.9 -99.99 -9.99
2020/01/25 09:42 EST    3.34   4.24   11   54   14  41.0  38.3 1023.4 21.7  1.018 -99.9 -99.99 -9.99
2020/01/25 09:48 EST    3.23   4.14   10   56   13  41.2  38.3 1023.4 21.7  1.018 -99.9 -99.99 -9.99
2020/01/25 09:54 EST    3.13   4.08   10   62   13  41.4  38.3 1023.3 21.7  1.018 -99.9 -99.99 -9.99
2020/01/25 10:00 EST    3.01   3.99   11   59   12  41.5  38.3 1023.2 21.6  1.018 -99.9 -99.99 -9.99
2020/01/25 10:06 EST    2.90   3.89    9   60   12  41.5  38.3 1023.1 21.7  1.018 -99.9 -99.99 -9.99
2020/01/25 10:12 EST    2.78   3.78    9   59   11  41.7  38.3 1022.9 21.7  1.018 -99.9 -99.99 -9.99
2020/01/25 10:18 EST    2.65   3.70    9   42   13  41.4  38.3 1022.8 21.7  1.018 -99.9 -99.99 -9.99
2020/01/25 10:24 EST    2.53   3.54    9   55   12  41.5  38.3 1022.6 21.7  1.018 -99.9 -99.99 -9.99
2020/01/25 10:30 EST    2.40   3.38   10   63   12  42.3  38.5 1022.7 21.7  1.018 -99.9 -99.99 -9.99
2020/01/25 10:36 EST    2.28   3.22   10   70   13  42.4  38.5 1022.9 21.7  1.018 -99.9 -99.99 -9.99
2020/01/25 10:42 EST    2.15   3.09   12   74   14  43.0  38.5 1022.8 21.6  1.018 -99.9 -99.99 -9.99
2020/01/25 10:48 EST    2.02   2.97   11   80   13  42.8  38.5 1022.7 21.6  1.018 -99.9 -99.99 -9.99
2020/01/25 10:54 EST    1.89   2.83   13   75   15  43.0  38.7 1022.4 21.5  1.018 -99.9 -99.99 -9.99
2020/01/25 11:00 EST    1.76   2.68   12   63   15  42.8  38.7 1022.1 21.7  1.018 -99.9 -99.99 -9.99
2020/01/25 11:06 EST    1.63   2.51   13   65   16  43.3  38.7 1021.8 21.7  1.018 -99.9 -99.99 -9.99
2020/01/25 11:12 EST    1.51   2.35   11   65   14  43.2  38.7 1021.7 21.7  1.018 -99.9 -99.99 -9.99
2020/01/25 11:18 EST    1.39   2.25   12   61   18  43.3  38.7 1021.3 21.7  1.018 -99.9 -99.99 -9.99
2020/01/25 11:24 EST    1.27   2.16   13   67   17  43.5  38.7 1021.0 21.7  1.018 -99.9 -99.99 -9.99
2020/01/25 11:30 EST    1.15   1.99   12   71   16  43.5  38.7 1020.9 21.7  1.018 -99.9 -99.99 -9.99
2020/01/25 11:36 EST    1.04   1.84   12   72   15  43.5  38.5 1020.8 21.7  1.018 -99.9 -99.99 -9.99
2020/01/25 11:42 EST    0.93   1.73   11   71   15  44.1  38.3 1020.7 21.6  1.018 -99.9 -99.99 -9.99
2020/01/25 11:48 EST    0.82   1.62   12   68   16  44.2  38.3 1020.5 21.7  1.018 -99.9 -99.99 -9.99
2020/01/25 11:54 EST    0.72   1.49   13   71   17  44.1  38.5 1020.3 21.6  1.018 -99.9 -99.99 -9.99
2020/01/25 12:00 EST    0.63   1.41   11   75   16  44.1  38.5 1020.3 21.6  1.018 -99.9 -99.99 -9.99
2020/01/25 12:06 EST    0.54   1.32   12   74   15  44.4  38.3 1020.2 21.6  1.018 -99.9 -99.99 -9.99
2020/01/25 12:12 EST    0.46   1.18   12   74   14  44.4  38.5 1020.1 21.7  1.018 -99.9 -99.99 -9.99
2020/01/25 12:18 EST    0.38   1.08   11   68   15  44.8  38.5 1019.9 21.6  1.018 -99.9 -99.99 -9.99
2020/01/25 12:24 EST    0.31   1.02   12   64   16  44.2  38.5 1019.6 21.6  1.018 -99.9 -99.99 -9.99
2020/01/25 12:30 EST    0.24   0.98   14   64   17  44.8  38.5 1019.5 21.5  1.018 -99.9 -99.99 -9.99
2020/01/25 12:36 EST    0.18   0.94   15   66   19  45.0  38.3 1019.2 21.5  1.018 -99.9 -99.99 -9.99
2020/01/25 12:42 EST    0.13   0.90   15   67   19  45.0  38.3 1018.9 21.6  1.018 -99.9 -99.99 -9.99
2020/01/25 12:48 EST    0.08   0.84   16   65   18  45.1  38.3 1018.6 21.6  1.018 -99.9 -99.99 -9.99
2020/01/25 12:54 EST    0.04   0.80   12   65   18  44.8  38.3 1018.6 21.3  1.018 -99.9 -99.99 -9.99
2020/01/25 13:00 EST    0.00   0.76   11   65   17  45.0  38.3 1018.5 21.4  1.018 -99.9 -99.99 -9.99
2020/01/25 13:06 EST   -0.03   0.74   14   69   18  45.1  38.3 1018.3 21.4  1.018 -99.9 -99.99 -9.99
2020/01/25 13:12 EST   -0.06   0.75   11   69   15  45.0  38.3 1018.3 21.4  1.018 -99.9 -99.99 -9.99
2020/01/25 13:18 EST   -0.08   0.75   11   72   15  45.0  38.3 1018.2 21.4  1.018 -99.9 -99.99 -9.99
2020/01/25 13:24 EST   -0.10   0.72   13   76   15  45.1  38.3 1018.1 21.4  1.018 -99.9 -99.99 -9.99
2020/01/25 13:30 EST   -0.11   0.68   11   76   14  45.1  38.3 1018.1 21.4  1.018 -99.9 -99.99 -9.99
2020/01/25 13:36 EST   -0.12   0.71   15   82   17  45.0  38.3 1017.9 21.4  1.018 -99.9 -99.99 -9.99
2020/01/25 13:42 EST   -0.12   0.72   15   74   18  45.7  38.3 1017.6 21.4  1.018 -99.9 -99.99 -9.99
2020/01/25 13:48 EST   -0.12   0.72   14   79   19  44.8  38.3 1017.6 21.4  1.018 -99.9 -99.99 -9.99
2020/01/25 13:54 EST   -0.12   0.74   11   71   14  44.6  38.3 1017.4 21.4  1.018 -99.9 -99.99 -9.99
2020/01/25 14:00 EST   -0.11   0.77   15   71   17  45.0  38.3 1017.3 21.5  1.018 -99.9 -99.99 -9.99
2020/01/25 14:06 EST   -0.10   0.84   14   82   17  44.8  38.3 1017.2 21.5  1.018 -99.9 -99.99 -9.99
2020/01/25 14:12 EST   -0.09   0.84   15   76   18  45.1  38.3 1017.1 21.4  1.018 -99.9 -99.99 -9.99
2020/01/25 14:18 EST   -0.07   0.88   15   77   17  45.1  38.3 1017.1 21.4  1.018 -99.9 -99.99 -9.99
2020/01/25 14:24 EST   -0.06   0.96   14   77   17  45.1  38.3 1016.9 21.4  1.018 -99.9 -99.99 -9.99
2020/01/25 14:30 EST   -0.04   0.99   14   74   18  44.8  38.3 1016.5 21.4  1.018 -99.9 -99.99 -9.99
2020/01/25 14:36 EST   -0.02   0.97   15   77   18  45.1  38.3 1016.4 21.4  1.018 -99.9 -99.99 -9.99
2020/01/25 14:42 EST    0.01   0.97   15   72   18  45.1  38.3 1016.1 21.4  1.018 -99.9 -99.99 -9.99
2020/01/25 14:48 EST    0.03   0.99   14   79   18  45.0  38.3 1016.1 21.4  1.018 -99.9 -99.99 -9.99
2020/01/25 14:54 EST    0.06   1.01   14   77   17  45.3  38.5 1015.9 21.4  1.018 -99.9 -99.99 -9.99
2020/01/25 15:00 EST    0.09   1.01   14   76   17  45.3  38.5 1015.7 21.4  1.018 -99.9 -99.99 -9.99
2020/01/25 15:06 EST    0.11   1.13   13   82   17  45.0  38.3 1015.7 21.4  1.018 -99.9 -99.99 -9.99
2020/01/25 15:12 EST    0.14   1.17   14   82   16  45.1  38.3 1015.2 21.4  1.018 -99.9 -99.99 -9.99
2020/01/25 15:18 EST    0.18   1.15   20   82   24  45.7  38.5 1014.5 21.3  1.018 -99.9 -99.99 -9.99
2020/01/25 15:24 EST    0.21   1.16   18   87   24  45.3  38.3 1014.3 21.4  1.018 -99.9 -99.99 -9.99
2020/01/25 15:30 EST    0.25   1.25   19   90   22  45.1  38.3 1014.1 21.3  1.018 -99.9 -99.99 -9.99
2020/01/25 15:36 EST    0.28   1.34   18   94   25  45.3  38.3 1014.2 21.3  1.018 -99.9 -99.99 -9.99
2020/01/25 15:42 EST    0.32   1.40   17   92   22  45.0  38.3 1014.0 21.4  1.018 -99.9 -99.99 -9.99
2020/01/25 15:48 EST    0.37   1.44   19   97   23  45.0  38.3 1013.9 21.3  1.018 -99.9 -99.99 -9.99
2020/01/25 15:54 EST    0.41   1.47   18   95   22  45.3  38.3 1013.7 21.3  1.018 -99.9 -99.99 -9.99
2020/01/25 16:00 EST    0.46   1.47   19  101   30  45.1  38.3 1013.9 21.3  1.018 -99.9 -99.99 -9.99
2020/01/25 16:06 EST    0.51   1.48   17  101   22  44.8  38.3 1013.8 21.0  1.018 -99.9 -99.99 -9.99
2020/01/25 16:12 EST    0.56   1.58   19  102   24  45.0  38.3 1013.6 21.0  1.018 -99.9 -99.99 -9.99
2020/01/25 16:18 EST    0.61   1.72   17   99   22  44.8  38.3 1013.5 21.1  1.018 -99.9 -99.99 -9.99
2020/01/25 16:24 EST    0.67   1.84   16   99   23  44.4  38.5 1013.5 21.0  1.018 -99.9 -99.99 -9.99
2020/01/25 16:30 EST    0.73   1.80   18   99   20  44.2  38.5 1013.2 21.1  1.018 -99.9 -99.99 -9.99
2020/01/25 16:36 EST    0.80   1.86   17  101   20  44.1  38.5 1013.2 21.1  1.018 -99.9 -99.99 -9.99
2020/01/25 16:42 EST    0.86   1.97   17  101   20  44.1  38.5 1013.1 21.1  1.018 -99.9 -99.99 -9.99
2020/01/25 16:48 EST    0.93   2.12   16   97   19  44.1  38.5 1012.9 21.1  1.018 -99.9 -99.99 -9.99
2020/01/25 16:54 EST    1.01   2.28   15   96   18  44.1  38.5 1012.9 21.1  1.018 -99.9 -99.99 -9.99
2020/01/25 17:00 EST    1.08   2.29   15   99   18  44.1  38.5 1012.7 21.1  1.018 -99.9 -99.99 -9.99
2020/01/25 17:06 EST    1.16   2.24   18   99   22  44.6  38.5 1012.4 21.2  1.018 -99.9 -99.99 -9.99
2020/01/25 17:12 EST    1.24   2.24   17  100   19  44.2  38.5 1012.3 21.2  1.018 -99.9 -99.99 -9.99
2020/01/25 17:18 EST    1.33   2.40   17  101   22  44.2  38.5 1012.2 21.2  1.018 -99.9 -99.99 -9.99
2020/01/25 17:24 EST    1.42   2.50   17  102   20  44.2  38.5 1012.1 21.2  1.018 -99.9 -99.99 -9.99
2020/01/25 17:30 EST    1.51   2.57   16   97   20  44.2  38.5 1011.8 21.2  1.018 -99.9 -99.99 -9.99
2020/01/25 17:36 EST    1.60   2.71   17   93   19  44.6  38.5 1011.4 21.2  1.018 -99.9 -99.99 -9.99
2020/01/25 17:42 EST    1.69   2.85   18   98   21  45.0  38.5 1011.2 21.3  1.018 -99.9 -99.99 -9.99
2020/01/25 17:48 EST    1.79   2.91   18   99   22  45.1  38.5 1010.9 21.3  1.018 -99.9 -99.99 -9.99
2020/01/25 17:54 EST    1.89   3.00   19  108   23  44.8  38.5 1010.9 21.3  1.018 -99.9 -99.99 -9.99
2020/01/25 18:00 EST    1.99   3.19   20  103   24  45.1  38.5 1010.6 21.3  1.018 -99.9 -99.99 -9.99
2020/01/25 18:06 EST    2.09   3.35   18  107   23  44.8  38.5 1010.5 21.3  1.018 -99.9 -99.99 -9.99
2020/01/25 18:12 EST    2.18   3.46   19  104   25  44.6  38.5 1010.3 21.3  1.018 -99.9 -99.99 -9.99
2020/01/25 18:18 EST    2.28   3.50   21  106   24  44.8  38.5 1010.3 21.3  1.018 -99.9 -99.99 -9.99
2020/01/25 18:24 EST    2.38   3.58   20  105   23  44.8  38.5 1010.1 21.3  1.018 -99.9 -99.99 -9.99
2020/01/25 18:30 EST    2.48   3.74   21  107   24  44.6  38.5 1009.9 21.4  1.018 -99.9 -99.99 -9.99
2020/01/25 18:36 EST    2.58   3.89   20  108   25  44.8  38.5 1009.7 21.4  1.018 -99.9 -99.99 -9.99
2020/01/25 18:42 EST    2.67   3.96   20  106   28  44.6  38.5 1009.1 21.4  1.018 -99.9 -99.99 -9.99
2020/01/25 18:48 EST    2.76   4.00   21  105   26  44.6  38.5 1009.0 21.4  1.018 -99.9 -99.99 -9.99
2020/01/25 18:54 EST    2.85   4.11   21  105   27  44.6  38.5 1008.9 21.4  1.018 -99.9 -99.99 -9.99
2020/01/25 19:00 EST    2.94   4.28   16  111   21  44.6  38.5 1009.0 21.5  1.018 -99.9 -99.99 -9.99
2020/01/25 19:06 EST    3.02   4.27   22  118   28  46.9  38.5 1008.6 21.6  1.018 -99.9 -99.99 -9.99
2020/01/25 19:12 EST    3.10   4.32   23  114   32  46.9  38.5 1008.5 21.6  1.018 -99.9 -99.99 -9.99
2020/01/25 19:18 EST    3.18   4.56   24  120   31  47.5  38.5 1008.4 21.6  1.018 -99.9 -99.99 -9.99
2020/01/25 19:24 EST    3.25   4.75   22  123   27  47.5  38.5 1008.3 21.6  1.018 -99.9 -99.99 -9.99
2020/01/25 19:30 EST    3.32   4.71   22  130   31  47.5  38.5 1008.5 21.6  1.018 -99.9 -99.99 -9.99
2020/01/25 19:36 EST    3.38   4.72   20  133   28  47.3  38.5 1008.4 21.6  1.018 -99.9 -99.99 -9.99
2020/01/25 19:42 EST    3.43   4.84   24  128   27  48.2  38.5 1007.9 21.5  1.018 -99.9 -99.99 -9.99
2020/01/25 19:48 EST    3.48   4.92   26  133   32  48.7  38.5 1007.6 21.5  1.018 -99.9 -99.99 -9.99
2020/01/25 19:54 EST    3.53   4.82   25  132   33  47.7  38.5 1007.6 21.5  1.018 -99.9 -99.99 -9.99
2020/01/25 20:00 EST    3.56   4.89   25  131   32  47.8  38.5 1007.3 21.5  1.018 -99.9 -99.99 -9.99
2020/01/25 20:06 EST    3.60   5.00   25  135   29  47.7  38.5 1007.1 21.6  1.018 -99.9 -99.99 -9.99
2020/01/25 20:12 EST    3.62   5.03   26  133   31  48.0  38.5 1006.9 21.6  1.018 -99.9 -99.99 -9.99
2020/01/25 20:18 EST    3.64   5.05   26  136   33  48.2  38.5 1006.7 21.6  1.018 -99.9 -99.99 -9.99
2020/01/25 20:24 EST    3.65   5.11   28  136   35  49.1  38.5 1006.6 21.5  1.018 -99.9 -99.99 -9.99
2020/01/25 20:30 EST    3.65   5.17   30  136   34  48.4  38.5 1006.5 21.5  1.018 -99.9 -99.99 -9.99
2020/01/25 20:36 EST    3.65   5.17   24  137   36  47.7  38.5 1006.7 21.5  1.018 -99.9 -99.99 -9.99
2020/01/25 20:42 EST    3.64   5.17   24  138   30  48.6  38.5 1006.6 21.5  1.018 -99.9 -99.99 -9.99
2020/01/25 20:48 EST    3.62   5.14   25  137   30  47.8  38.5 1006.3 21.5  1.018 -99.9 -99.99 -9.99
2020/01/25 20:54 EST    3.59   5.23   26  138   32  49.1  38.5 1006.4 21.5  1.018 -99.9 -99.99 -9.99
2020/01/25 21:00 EST    3.56   5.13   26  141   32  48.6  38.5 1006.5 21.5  1.018 -99.9 -99.99 -9.99
2020/01/25 21:06 EST    3.52   4.98   24  152   32  47.3  38.5 1006.7 21.5  1.018 -99.9 -99.99 -9.99
2020/01/25 21:12 EST    3.47   4.86   23  143   26  47.5  38.5 1006.4 21.5  1.018 -99.9 -99.99 -9.99
2020/01/25 21:18 EST    3.42   4.87   22  144   27  47.7  38.7 1006.4 21.5  1.018 -99.9 -99.99 -9.99
2020/01/25 21:24 EST    3.36   4.83   22  147   26  47.7  38.7 1006.2 21.5  1.018 -99.9 -99.99 -9.99
2020/01/25 21:30 EST    3.29   4.74   20  151   24  47.7  38.7 1006.6 21.6  1.018 -99.9 -99.99 -9.99
2020/01/25 21:36 EST    3.22   4.75   15  210   22  47.3  38.7 1006.8 21.5  1.018 -99.9 -99.99 -9.99
2020/01/25 21:42 EST    3.14   4.73   19  184   27  47.3  38.7 1006.8 21.6  1.018 -99.9 -99.99 -9.99
2020/01/25 21:48 EST    3.06   4.68   19  182   21  47.1  38.7 1006.8 21.6  1.018 -99.9 -99.99 -9.99
2020/01/25 21:54 EST    2.97   4.62   18  176   21  46.2  38.7 1006.7 21.6  1.018 -99.9 -99.99 -9.99
2020/01/25 22:00 EST    2.87   4.51   18  174   20  46.6  38.7 1006.4 21.6  1.018 -99.9 -99.99 -9.99
2020/01/25 22:06 EST    2.77   4.30   16  182   18  45.9  38.7 1006.3 21.6  1.018 -99.9 -99.99 -9.99
2020/01/25 22:12 EST    2.66   4.13   15  183   17  45.7  38.7 1006.3 21.6  1.018 -99.9 -99.99 -9.99
2020/01/25 22:18 EST    2.55   4.05   13  191   16  45.7  38.7 1006.3 21.6  1.018 -99.9 -99.99 -9.99
2020/01/25 22:24 EST    2.44   3.93   15  226   19  48.2  38.7 1006.2 21.6  1.018 -99.9 -99.99 -9.99
2020/01/25 22:30 EST    2.33   3.80   11  236   17  47.1  38.7 1006.1 21.6  1.018 -99.9 -99.99 -9.99
2020/01/25 22:36 EST    2.21   3.68   12  232   15  46.9  38.7 1006.0 21.6  1.018 -99.9 -99.99 -9.99
2020/01/25 22:42 EST    2.09   3.56   11  236   14  46.9  38.7 1006.0 21.6  1.018 -99.9 -99.99 -9.99
2020/01/25 22:48 EST    1.96   3.49   10  238   12  46.9  38.7 1005.9 21.6  1.018 -99.9 -99.99 -9.99
2020/01/25 22:54 EST    1.84   3.37   11  239   15  46.8  38.8 1005.9 21.6  1.018 -99.9 -99.99 -9.99
2020/01/25 23:00 EST    1.71   3.26    9  248   14  46.8  38.8 1006.0 21.6  1.018 -99.9 -99.99 -9.99
2020/01/25 23:06 EST    1.59   3.13    9  247   13  46.9  38.8 1006.0 21.7  1.018 -99.9 -99.99 -9.99
2020/01/25 23:12 EST    1.47   2.96    8  244   12  46.6  38.8 1005.9 21.7  1.018 -99.9 -99.99 -9.99
2020/01/25 23:18 EST    1.34   2.80    7  253   12  46.4  38.8 1006.0 21.6  1.018 -99.9 -99.99 -9.99
2020/01/25 23:24 EST    1.22   2.63    7  244   11  46.0  38.7 1006.0 21.6  1.018 -99.9 -99.99 -9.99
2020/01/25 23:30 EST    1.10   2.50    8  244   11  46.0  38.7 1006.0 21.6  1.018 -99.9 -99.99 -9.99
2020/01/25 23:36 EST    0.99   2.35    6  248   10  45.7  38.7 1006.0 21.6  1.018 -99.9 -99.99 -9.99
2020/01/25 23:42 EST    0.87   2.22    6  250    9  45.5  38.7 1006.0 21.6  1.018 -99.9 -99.99 -9.99
2020/01/25 23:48 EST    0.76   2.08    6  244    9  45.7  38.7 1006.0 21.6  1.018 -99.9 -99.99 -9.99
2020/01/25 23:54 EST    0.66   1.97    6  244    9  45.7  38.7 1006.0 21.6  1.018 -99.9 -99.99 -9.99
2020/01/26 00:00 EST    0.56   1.87    7  242   10  46.0  38.7 1006.1 21.6  1.018 -99.9 -99.99 -9.99
2020/01/26 00:06 EST    0.46   1.81    6  246    9  46.0  38.8 1006.2 21.5  1.018 -99.9 -99.99 -9.99
2020/01/26 00:12 EST    0.37   1.71    5  251    9  45.9  38.8 1006.1 21.6  1.018 -99.9 -99.99 -9.99
2020/01/26 00:18 EST    0.28   1.57    5  240    7  45.7  38.8 1006.1 21.6  1.018 -99.9 -99.99 -9.99
2020/01/26 00:24 EST    0.20   1.43    5  239    8  46.0  38.8 1006.1 21.6  1.018 -99.9 -99.99 -9.99
2020/01/26 00:30 EST    0.13   1.33    5  251    7  45.9  38.8 1006.0 21.6  1.018 -99.9 -99.99 -9.99
2020/01/26 00:36 EST    0.06   1.27    4  250    7  45.5  38.8 1006.0 21.6  1.018 -99.9 -99.99 -9.99
2020/01/26 00:42 EST    0.00   1.18    5  244    6  45.3  38.8 1005.9 21.6  1.018 -99.9 -99.99 -9.99
2020/01/26 00:48 EST   -0.05   1.07    3  256    6  45.3  38.8 1005.9 21.7  1.018 -99.9 -99.99 -9.99
2020/01/26 00:54 EST   -0.10   0.99    4  242    6  45.1  38.8 1005.8 21.6  1.018 -99.9 -99.99 -9.99
2020/01/26 01:00 EST   -0.14   0.92    4  242    6  45.1  38.8 1005.7 21.5  1.018 -99.9 -99.99 -9.99
2020/01/26 01:06 EST   -0.18   0.88    4  233    5  44.6  38.8 1005.7 21.6  1.018 -99.9 -99.99 -9.99
2020/01/26 01:12 EST   -0.21   0.81    4  227    4  44.2  38.8 1005.6 21.6  1.018 -99.9 -99.99 -9.99
2020/01/26 01:18 EST   -0.23   0.76    3  228    4  43.9  38.8 1005.6 21.5  1.018 -99.9 -99.99 -9.99
2020/01/26 01:24 EST   -0.24   0.68    4  227    5  43.7  38.8 1005.6 21.5  1.018 -99.9 -99.99 -9.99
2020/01/26 01:30 EST   -0.25   0.61    3  253    5  44.2  38.8 1005.6 21.5  1.018 -99.9 -99.99 -9.99
2020/01/26 01:36 EST   -0.26   0.59    3  231    5  43.7  38.8 1005.6 21.5  1.018 -99.9 -99.99 -9.99
2020/01/26 01:42 EST   -0.26   0.56    6  219    6  43.5  38.8 1005.7 21.5  1.018 -99.9 -99.99 -9.99
2020/01/26 01:48 EST   -0.25   0.59    6  205    6  43.3  38.8 1005.7 21.5  1.018 -99.9 -99.99 -9.99
2020/01/26 01:54 EST   -0.24   0.62    7  207    7  44.1  38.8 1005.7 21.4  1.018 -99.9 -99.99 -9.99
2020/01/26 02:00 EST   -0.23   0.62    6  206    7  43.2  38.8 1005.7 21.5  1.018 -99.9 -99.99 -9.99
2020/01/26 02:06 EST   -0.21   0.66    7  204    7  43.7  38.8 1005.6 21.6  1.018 -99.9 -99.99 -9.99
2020/01/26 02:12 EST   -0.18   0.69    7  205    7  43.9  38.8 1005.7 21.6  1.018 -99.9 -99.99 -9.99
2020/01/26 02:18 EST   -0.16   0.74    7  208    8  43.5  38.8 1005.7 21.6  1.018 -99.9 -99.99 -9.99
2020/01/26 02:24 EST   -0.13   0.76    7  211    8  43.0  38.8 1005.8 21.6  1.018 -99.9 -99.99 -9.99
2020/01/26 02:30 EST   -0.10   0.77    6  219    7  42.8  38.7 1005.7 21.7  1.018 -99.9 -99.99 -9.99
2020/01/26 02:36 EST   -0.06   0.81    5  218    6  43.9  38.7 1005.7 21.6  1.018 -99.9 -99.99 -9.99
2020/01/26 02:42 EST   -0.02   0.80    7  212    7  43.3  38.8 1005.7 21.6  1.018 -99.9 -99.99 -9.99
2020/01/26 02:48 EST    0.02   0.82    9  210    9  44.1  38.8 1005.8 21.6  1.018 -99.9 -99.99 -9.99
2020/01/26 02:54 EST    0.06   0.88    8  207    9  43.5  38.8 1005.9 21.6  1.018 -99.9 -99.99 -9.99
2020/01/26 03:00 EST    0.10   0.93    7  213    8  43.5  38.8 1005.8 21.6  1.018 -99.9 -99.99 -9.99
2020/01/26 03:06 EST    0.15   0.97    6  216    7  43.0  38.8 1005.8 21.6  1.018 -99.9 -99.99 -9.99
2020/01/26 03:12 EST    0.19   1.06    5  233    8  43.2  38.8 1005.8 21.6  1.018 -99.9 -99.99 -9.99
2020/01/26 03:18 EST    0.24   1.14    4  257    8  43.5  38.8 1005.7 21.6  1.018 -99.9 -99.99 -9.99
2020/01/26 03:24 EST    0.29   1.19    4  245    6  43.7  38.8 1005.7 21.6  1.018 -99.9 -99.99 -9.99
2020/01/26 03:30 EST    0.33   1.27    3  266    5  43.7  38.8 1005.8 21.6  1.018 -99.9 -99.99 -9.99
2020/01/26 03:36 EST    0.38   1.37    2  262    4  43.7  38.8 1005.8 21.6  1.018 -99.9 -99.99 -9.99
2020/01/26 03:42 EST    0.44   1.45    4  267    6  44.2  38.8 1005.9 21.6  1.018 -99.9 -99.99 -9.99
2020/01/26 03:48 EST    0.49   1.51    4  264    6  44.8  38.8 1005.8 21.6  1.018 -99.9 -99.99 -9.99
2020/01/26 03:54 EST    0.54   1.57    4  274    5  45.1  38.8 1005.7 21.6  1.018 -99.9 -99.99 -9.99
2020/01/26 04:00 EST    0.59   1.63    6  291    9  45.3  38.8 1005.7 21.6  1.018 -99.9 -99.99 -9.99
2020/01/26 04:06 EST    0.65   1.69    5  296    8  45.5  38.8 1005.7 21.6  1.018 -99.9 -99.99 -9.99
2020/01/26 04:12 EST    0.71   1.78    5  283    9  45.3  38.8 1005.8 21.6  1.018 -99.9 -99.99 -9.99
2020/01/26 04:18 EST    0.76   1.83    6  282   11  45.3  38.8 1005.9 21.6  1.018 -99.9 -99.99 -9.99
2020/01/26 04:24 EST    0.82   1.93    6  270    9  45.3  38.8 1005.9 21.5  1.018 -99.9 -99.99 -9.99
2020/01/26 04:30 EST    0.89   1.99    6  278    9  44.8  38.8 1006.0 21.6  1.018 -99.9 -99.99 -9.99
2020/01/26 04:36 EST    0.95   2.03    6  281   10  44.6  38.8 1005.9 21.6  1.018 -99.9 -99.99 -9.99
2020/01/26 04:42 EST    1.01   2.14    5  283    9  44.4  38.8 1005.9 21.7  1.018 -99.9 -99.99 -9.99
2020/01/26 04:48 EST    1.08   2.22    5  280   10  44.6  38.8 1006.1 21.7  1.018 -99.9 -99.99 -9.99
2020/01/26 04:54 EST    1.15   2.25    5  279    6  44.4  38.8 1006.3 21.7  1.018 -99.9 -99.99 -9.99
2020/01/26 05:00 EST    1.22   2.30    6  277   10  44.4  38.8 1006.3 21.7  1.018 -99.9 -99.99 -9.99
2020/01/26 05:06 EST    1.29   2.37    4  282    7  44.2  38.8 1006.4 21.7  1.018 -99.9 -99.99 -9.99
2020/01/26 05:12 EST    1.37   2.46    5  281    7  44.2  38.8 1006.4 21.7  1.018 -99.9 -99.99 -9.99
2020/01/26 05:18 EST    1.45   2.55    8  289   11  44.4  38.8 1006.4 21.7  1.018 -99.9 -99.99 -9.99
2020/01/26 05:24 EST    1.53   2.65    5  276   12  44.1  38.8 1006.5 21.7  1.018 -99.9 -99.99 -9.99
2020/01/26 05:30 EST    1.61   2.70    9  286   13  44.2  38.8 1006.5 21.7  1.018 -99.9 -99.99 -9.99
2020/01/26 05:36 EST    1.69   2.80    7  284   12  44.1  38.8 1006.5 21.7  1.018 -99.9 -99.99 -9.99
2020/01/26 05:42 EST    1.78   2.87    6  288    9  43.9  38.8 1006.5 21.7  1.018 -99.9 -99.99 -9.99
2020/01/26 05:48 EST    1.87   2.92    5  284    8  43.7  38.8 1006.6 21.7  1.018 -99.9 -99.99 -9.99
2020/01/26 05:54 EST    1.96   2.96    4  282    7  43.7  38.8 1006.6 21.8  1.018 -99.9 -99.99 -9.99
2020/01/26 06:00 EST    2.05   3.02    6  286    9  43.5  38.8 1006.6 21.8  1.018 -99.9 -99.99 -9.99
2020/01/26 06:06 EST    2.14   3.05    8  291   14  43.5  38.8 1006.6 21.8  1.018 -99.9 -99.99 -9.99
2020/01/26 06:12 EST    2.24   3.09    5  282   11  43.3  38.8 1006.8 21.8  1.018 -99.9 -99.99 -9.99
2020/01/26 06:18 EST    2.33   3.16    7  281   10  43.0  38.8 1006.9 21.8  1.018 -99.9 -99.99 -9.99
2020/01/26 06:24 EST    2.43   3.23    7  285   10  42.8  38.8 1006.9 21.8  1.018 -99.9 -99.99 -9.99
2020/01/26 06:30 EST    2.52   3.30    7  289   11  42.6  38.8 1006.9 21.8  1.018 -99.9 -99.99 -9.99
2020/01/26 06:36 EST    2.62   3.38    7  278   11  42.3  38.8 1006.9 21.8  1.018 -99.9 -99.99 -9.99
2020/01/26 06:42 EST    2.71   3.49    7  281   10  42.1  38.8 1007.0 21.8  1.018 -99.9 -99.99 -9.99
2020/01/26 06:48 EST    2.80   3.58    8  284   13  41.7  38.8 1007.0 21.8  1.018 -99.9 -99.99 -9.99
2020/01/26 06:54 EST    2.90   3.67    9  290   17  41.5  38.8 1007.0 21.8  1.018 -99.9 -99.99 -9.99
2020/01/26 07:00 EST    2.99   3.71    8  280   12  41.4  38.8 1007.2 21.8  1.018 -99.9 -99.99 -9.99
2020/01/26 07:06 EST    3.08   3.79    5  288    9  41.2  38.8 1007.3 21.8  1.018 -99.9 -99.99 -9.99
2020/01/26 07:12 EST    3.16   3.82    7  293   10  41.0  38.8 1007.4 21.7  1.018 -99.9 -99.99 -9.99
2020/01/26 07:18 EST    3.25   3.88    9  296   13  40.8  38.8 1007.5 21.7  1.018 -99.9 -99.99 -9.99
2020/01/26 07:24 EST    3.33   3.91    8  292   12  40.8  38.8 1007.4 21.7  1.018 -99.9 -99.99 -9.99
2020/01/26 07:30 EST    3.41   3.97    8  292   13  40.6  38.8 1007.5 21.8  1.018 -99.9 -99.99 -9.99
2020/01/26 07:36 EST    3.48   4.03    7  292   11  40.5  39.0 1007.5 21.7  1.018 -99.9 -99.99 -9.99
2020/01/26 07:42 EST    3.55   4.10    7  290   14  40.5  39.0 1007.6 21.7  1.018 -99.9 -99.99 -9.99
2020/01/26 07:48 EST    3.61   4.15    8  293   12  40.8  38.8 1007.7 21.7  1.018 -99.9 -99.99 -9.99
2020/01/26 07:54 EST    3.68   4.21    7  277   10  40.6  38.8 1007.6 21.7  1.018 -99.9 -99.99 -9.99
2020/01/26 08:00 EST    3.73   4.28    7  285   12  40.5  38.8 1007.7 21.6  1.018 -99.9 -99.99 -9.99
2020/01/26 08:06 EST    3.78   4.34    8  277   12  41.0  38.8 1007.7 21.7  1.018 -99.9 -99.99 -9.99
2020/01/26 08:12 EST    3.83   4.37    8  289   19  40.8  38.8 1007.7 21.6  1.018 -99.9 -99.99 -9.99
2020/01/26 08:18 EST    3.87   4.42    8  293   14  40.8  38.8 1007.6 21.7  1.018 -99.9 -99.99 -9.99
2020/01/26 08:24 EST    3.90   4.44    8  287   13  40.8  38.8 1007.8 21.7  1.018 -99.9 -99.99 -9.99
2020/01/26 08:30 EST    3.93   4.45    8  288   13  41.2  38.8 1007.8 21.7  1.018 -99.9 -99.99 -9.99
2020/01/26 08:36 EST    3.95   4.47    7  286   12  41.4  38.8 1007.7 21.7  1.018 -99.9 -99.99 -9.99
2020/01/26 08:42 EST    3.96   4.50    9  293   15  41.4  38.8 1007.6 21.7  1.018 -99.9 -99.99 -9.99
2020/01/26 08:48 EST    3.97   4.49    6  286   10  41.7  38.8 1007.6 21.7  1.018 -99.9 -99.99 -9.99
2020/01/26 08:54 EST    3.97   4.52    8  292   11  41.7  38.8 1007.6 21.7  1.018 -99.9 -99.99 -9.99
2020/01/26 09:00 EST    3.97   4.51    6  280   11  42.1  38.8 1007.6 21.7  1.018 -99.9 -99.99 -9.99
2020/01/26 09:06 EST    3.95   4.53    8  288   14  42.1  38.8 1007.6 21.7  1.018 -99.9 -99.99 -9.99
2020/01/26 09:12 EST    3.94   4.52    7  287   11  42.3  38.8 1007.6 21.7  1.018 -99.9 -99.99 -9.99
2020/01/26 09:18 EST    3.91   4.48    9  284   14  42.3  38.8 1007.6 21.7  1.018 -99.9 -99.99 -9.99
2020/01/26 09:24 EST    3.88   4.47    7  281   16  42.8  39.0 1007.5 21.6  1.018 -99.9 -99.99 -9.99
2020/01/26 09:30 EST    3.84   4.46    8  290   14  43.0  39.0 1007.5 21.7  1.018 -99.9 -99.99 -9.99
2020/01/26 09:36 EST    3.79   4.42    7  290   10  43.2  39.0 1007.5 21.7  1.018 -99.9 -99.99 -9.99
2020/01/26 09:42 EST    3.74   4.34    8  286   12  43.3  39.0 1007.4 21.7  1.018 -99.9 -99.99 -9.99
2020/01/26 09:48 EST    3.68   4.31   11  285   15  43.3  39.0 1007.4 21.7  1.018 -99.9 -99.99 -9.99
2020/01/26 09:54 EST    3.62   4.28    7  283   12  43.9  39.0 1007.4 21.7  1.018 -99.9 -99.99 -9.99
2020/01/26 10:00 EST    3.54   4.23    9  290   11  44.1  39.0 1007.4 21.7  1.018 -99.9 -99.99 -9.99
2020/01/26 10:06 EST    3.47   4.16    9  292   15  44.4  39.0 1007.4 21.8  1.018 -99.9 -99.99 -9.99
2020/01/26 10:12 EST    3.38   4.08    7  289   14  45.0  39.0 1007.4 21.8  1.018 -99.9 -99.99 -9.99
2020/01/26 10:18 EST    3.30   3.97    7  288   13  45.3  39.2 1007.3 21.6  1.018 -99.9 -99.99 -9.99
2020/01/26 10:24 EST    3.20   3.93   10  286   14  45.1  39.2 1007.3 21.8  1.018 -99.9 -99.99 -9.99
2020/01/26 10:30 EST    3.10   3.88    8  289   13  45.5  39.2 1007.2 21.8  1.018 -99.9 -99.99 -9.99
2020/01/26 10:36 EST    3.00   3.79    7  288   11  45.7  39.2 1007.1 21.7  1.018 -99.9 -99.99 -9.99
2020/01/26 10:42 EST    2.89   3.68    5  279   11  45.7  39.2 1007.1 21.6  1.018 -99.9 -99.99 -9.99
2020/01/26 10:48 EST    2.78   3.58    6  278    9  45.7  39.4 1007.0 21.6  1.018 -99.9 -99.99 -9.99
2020/01/26 10:54 EST    2.67   3.46    8  280   12  46.0  39.4 1006.9 21.6  1.018 -99.9 -99.99 -9.99
2020/01/26 11:00 EST    2.55   3.30    7  282   11  46.0  39.4 1006.7 21.7  1.018 -99.9 -99.99 -9.99
2020/01/26 11:06 EST    2.43   3.20    7  275   12  46.2  39.4 1006.6 21.7  1.018 -99.9 -99.99 -9.99
2020/01/26 11:12 EST    2.31   3.10    8  280   12  46.6  39.4 1006.6 21.8  1.018 -99.9 -99.99 -9.99
2020/01/26 11:18 EST    2.19   2.97    5  263    9  46.6  39.4 1006.5 21.8  1.018 -99.9 -99.99 -9.99
2020/01/26 11:24 EST    2.06   2.81    5  263   11  46.0  39.4 1006.3 21.8  1.018 -99.9 -99.99 -9.99
2020/01/26 11:30 EST    1.94   2.70    5  272   11  46.4  39.4 1006.2 21.8  1.018 -99.9 -99.99 -9.99
2020/01/26 11:36 EST    1.82   2.58    5  279   11  46.8  39.4 1006.2 21.8  1.018 -99.9 -99.99 -9.99
2020/01/26 11:42 EST    1.69   2.43    5  264   10  45.9  39.4 1006.1 21.8  1.018 -99.9 -99.99 -9.99
2020/01/26 11:48 EST    1.57   2.31    6  260   11  46.2  39.4 1006.0 21.8  1.018 -99.9 -99.99 -9.99
2020/01/26 11:54 EST    1.45   2.22    5  254   11  46.0  39.4 1005.9 21.8  1.018 -99.9 -99.99 -9.99
2020/01/26 12:00 EST    1.33   2.12    6  259   10  45.5  39.4 1005.8 21.8  1.018 -99.9 -99.99 -9.99
2020/01/26 12:06 EST    1.21   2.00    6  266   12  46.0  39.4 1005.8 21.8  1.018 -99.9 -99.99 -9.99
2020/01/26 12:12 EST    1.10   1.91    6  283   11  47.3  39.6 1005.8 21.7  1.018 -99.9 -99.99 -9.99
2020/01/26 12:18 EST    0.99   1.80    6  275   10  46.9  39.6 1005.8 21.7  1.018 -99.9 -99.99 -9.99
2020/01/26 12:24 EST    0.88   1.70    8  277   12  46.9  39.6 1005.7 21.7  1.018 -99.9 -99.99 -9.99
2020/01/26 12:30 EST    0.78   1.60    6  279   11  47.7  39.6 1005.6 21.8  1.018 -99.9 -99.99 -9.99
2020/01/26 12:36 EST    0.68   1.49    6  264   12  46.4  39.6 1005.6 21.7  1.018 -99.9 -99.99 -9.99
2020/01/26 12:42 EST    0.58   1.39    7  269   12  46.2  39.6 1005.5 21.7  1.018 -99.9 -99.99 -9.99
2020/01/26 12:48 EST    0.50   1.29    8  276   15  46.4  39.4 1005.4 21.7  1.018 -99.9 -99.99 -9.99
2020/01/26 12:54 EST    0.41   1.20    6  273   11  46.4  39.6 1005.4 21.7  1.018 -99.9 -99.99 -9.99
2020/01/26 13:00 EST    0.34   1.11    6  265   11  46.0  39.6 1005.3 21.7  1.018 -99.9 -99.99 -9.99
2020/01/26 13:06 EST    0.27   1.03    6  266   14  46.0  39.6 1005.3 21.7  1.018 -99.9 -99.99 -9.99
2020/01/26 13:12 EST    0.20   0.93    5  280   10  46.4  39.6 1005.2 21.7  1.018 -99.9 -99.99 -9.99
2020/01/26 13:18 EST    0.14   0.86    7  274   11  46.4  39.6 1005.2 21.7  1.018 -99.9 -99.99 -9.99
2020/01/26 13:24 EST    0.09   0.81    8  275   13  46.2  39.6 1005.1 21.7  1.018 -99.9 -99.99 -9.99
2020/01/26 13:30 EST    0.04   0.73    5  269   12  45.9  39.6 1005.0 21.5  1.018 -99.9 -99.99 -9.99
2020/01/26 13:36 EST    0.00   0.72    5  269   10  46.0  39.6 1004.9 21.6  1.018 -99.9 -99.99 -9.99
2020/01/26 13:42 EST   -0.04   0.69    8  279   14  46.8  39.6 1004.9 21.6  1.018 -99.9 -99.99 -9.99
2020/01/26 13:48 EST   -0.06   0.69    6  274   11  46.8  39.6 1004.8 21.6  1.018 -99.9 -99.99 -9.99
2020/01/26 13:54 EST   -0.09   0.67    6  276   11  47.1  39.6 1004.8 21.6  1.018 -99.9 -99.99 -9.99
2020/01/26 14:00 EST   -0.11   0.66    6  271   14  47.3  39.6 1004.7 21.6  1.018 -99.9 -99.99 -9.99
2020/01/26 14:06 EST   -0.12   0.66    5  264   10  47.1  39.6 1004.7 21.6  1.018 -99.9 -99.99 -9.99
2020/01/26 14:12 EST   -0.13   0.63    5  270   13  47.3  39.6 1004.8 21.7  1.018 -99.9 -99.99 -9.99
2020/01/26 14:18 EST   -0.13   0.62    6  267   11  46.8  39.6 1004.7 21.7  1.018 -99.9 -99.99 -9.99
2020/01/26 14:24 EST   -0.13   0.62    7  286   12  47.3  39.6 1004.8 21.6  1.018 -99.9 -99.99 -9.99
2020/01/26 14:30 EST   -0.13   0.66    6  276   13  46.8  39.6 1004.8 21.6  1.018 -99.9 -99.99 -9.99
2020/01/26 14:36 EST   -0.12   0.62    7  271   12  46.8  39.6 1004.8 21.6  1.018 -99.9 -99.99 -9.99
2020/01/26 14:42 EST   -0.11   0.61    6  276   12  46.6  39.6 1004.8 21.6  1.018 -99.9 -99.99 -9.99
2020/01/26 14:48 EST   -0.09   0.62    5  273   10  46.6  39.6 1004.9 21.6  1.018 -99.9 -99.99 -9.99
2020/01/26 14:54 EST   -0.07   0.64    6  267   12  46.0  39.6 1004.9 21.7  1.018 -99.9 -99.99 -9.99
2020/01/26 15:00 EST   -0.05   0.66    5  277   10  45.9  39.6 1004.9 21.7  1.018 -99.9 -99.99 -9.99
2020/01/26 15:06 EST   -0.03   0.64    6  277   12  46.2  39.6 1005.0 21.6  1.018 -99.9 -99.99 -9.99
2020/01/26 15:12 EST    0.00   0.66    6  275   12  46.0  39.7 1005.0 21.6  1.018 -99.9 -99.99 -9.99
2020/01/26 15:18 EST    0.03   0.67    5  278    9  46.6  39.7 1005.0 21.6  1.018 -99.9 -99.99 -9.99
2020/01/26 15:24 EST    0.06   0.68    8  283   14  46.4  39.7 1005.1 21.6  1.018 -99.9 -99.99 -9.99
2020/01/26 15:30 EST    0.09   0.69    9  281   13  46.2  39.7 1005.1 21.6  1.018 -99.9 -99.99 -9.99
2020/01/26 15:36 EST    0.13   0.71    7  280   11  46.2  39.7 1005.2 21.6  1.018 -99.9 -99.99 -9.99
2020/01/26 15:42 EST    0.16   0.76    5  279   11  46.0  39.7 1005.2 21.6  1.018 -99.9 -99.99 -9.99
2020/01/26 15:48 EST    0.20   0.79    5  284   12  46.2  39.7 1005.3 21.6  1.018 -99.9 -99.99 -9.99
2020/01/26 15:54 EST    0.24   0.83    4  284    8  46.6  39.7 1005.4 21.6  1.018 -99.9 -99.99 -9.99
2020/01/26 16:00 EST    0.28   0.85    4  282    8  45.7  39.7 1005.4 21.6  1.018 -99.9 -99.99 -9.99
2020/01/26 16:06 EST    0.32   0.88    5  278    9  46.0  39.7 1005.5 21.6  1.018 -99.9 -99.99 -9.99
2020/01/26 16:12 EST    0.36   0.91    4  278   11  45.7  39.7 1005.5 21.6  1.018 -99.9 -99.99 -9.99
2020/01/26 16:18 EST    0.41   0.94    5  282    9  45.5  39.7 1005.6 21.6  1.018 -99.9 -99.99 -9.99
2020/01/26 16:24 EST    0.45   1.01    5  285    7  46.0  39.7 1005.7 21.6  1.018 -99.9 -99.99 -9.99
2020/01/26 16:30 EST    0.50   1.01    6  295   12  45.7  39.7 1005.7 21.6  1.018 -99.9 -99.99 -9.99
2020/01/26 16:36 EST    0.55   1.05    9  291   12  45.7  39.7 1005.7 21.6  1.018 -99.9 -99.99 -9.99
2020/01/26 16:42 EST    0.60   1.10    9  297   12  45.1  39.7 1005.8 21.6  1.018 -99.9 -99.99 -9.99
2020/01/26 16:48 EST    0.65   1.13    9  306   13  44.4  39.7 1005.9 21.6  1.018 -99.9 -99.99 -9.99
2020/01/26 16:54 EST    0.71   1.17    8  305   13  44.1  39.7 1006.0 21.6  1.018 -99.9 -99.99 -9.99
2020/01/26 17:00 EST    0.76   1.22    7  308   11  43.9  39.7 1006.1 21.6  1.018 -99.9 -99.99 -9.99
2020/01/26 17:06 EST    0.82   1.28    4  297    9  43.9  39.7 1006.2 21.6  1.018 -99.9 -99.99 -9.99
2020/01/26 17:12 EST    0.88   1.33    6  287    8  43.9  39.7 1006.2 21.6  1.018 -99.9 -99.99 -9.99
2020/01/26 17:18 EST    0.95   1.41    6  291   11  43.7  39.7 1006.2 21.6  1.018 -99.9 -99.99 -9.99
2020/01/26 17:24 EST    1.01   1.47    6  293   10  43.5  39.7 1006.3 21.5  1.018 -99.9 -99.99 -9.99
2020/01/26 17:30 EST    1.08   1.52    7  289    9  43.3  39.7 1006.4 21.5  1.018 -99.9 -99.99 -9.99
2020/01/26 17:36 EST    1.15   1.58    5  291   10  43.2  39.6 1006.5 21.5  1.018 -99.9 -99.99 -9.99
2020/01/26 17:42 EST    1.23   1.65    4  284    8  43.0  39.6 1006.5 21.7  1.018 -99.9 -99.99 -9.99
2020/01/26 17:48 EST    1.30   1.75    4  288    7  42.8  39.6 1006.5 21.9  1.018 -99.9 -99.99 -9.99
2020/01/26 17:54 EST    1.38   1.84    5  289    7  42.8  39.6 1006.6 21.9  1.018 -99.9 -99.99 -9.99
2020/01/26 18:00 EST    1.46   1.92    4  288    7  42.6  39.6 1006.8 21.8  1.018 -99.9 -99.99 -9.99
2020/01/26 18:06 EST    1.54   2.01    4  285    6  42.6  39.4 1006.8 21.7  1.018 -99.9 -99.99 -9.99
2020/01/26 18:12 EST    1.63   2.12    4  284    5  42.4  39.4 1006.8 21.7  1.018 -99.9 -99.99 -9.99
2020/01/26 18:18 EST    1.71   2.22    4  279    5  42.3  39.4 1006.9 21.7  1.018 -99.9 -99.99 -9.99
2020/01/26 18:24 EST    1.80   2.32    3  272    5  41.9  39.4 1006.9 21.7  1.018 -99.9 -99.99 -9.99
2020/01/26 18:30 EST    1.89   2.41    2  273    3  41.5  39.4 1006.9 21.6  1.018 -99.9 -99.99 -9.99
2020/01/26 18:36 EST    1.98   2.50    1  254    3  41.2  39.4 1006.9 21.6  1.018 -99.9 -99.99 -9.99
2020/01/26 18:42 EST    2.07   2.57    1  257    3  41.0  39.4 1006.9 21.6  1.018 -99.9 -99.99 -9.99
2020/01/26 18:48 EST    2.16   2.64    2  263    4  40.6  39.2 1007.0 21.7  1.018 -99.9 -99.99 -9.99
2020/01/26 18:54 EST    2.25   2.71    3  251    4  40.3  39.2 1007.0 21.6  1.018 -99.9 -99.99 -9.99
2020/01/26 19:00 EST    2.34   2.79    2  254    4  40.3  39.4 1007.0 21.6  1.018 -99.9 -99.99 -9.99
2020/01/26 19:06 EST    2.43   2.88    3  249    4  39.7  39.4 1007.0 21.6  1.018 -99.9 -99.99 -9.99
2020/01/26 19:12 EST    2.52   2.97    3  241    4  39.7  39.4 1007.1 21.6  1.018 -99.9 -99.99 -9.99
2020/01/26 19:18 EST    2.61   3.08    3  244    5  39.6  39.2 1007.1 21.6  1.018 -99.9 -99.99 -9.99
2020/01/26 19:24 EST    2.69   3.16    3  235    4  39.6  39.2 1007.1 21.7  1.018 -99.9 -99.99 -9.99
2020/01/26 19:30 EST    2.78   3.24    3  239    3  39.6  39.2 1007.1 21.7  1.018 -99.9 -99.99 -9.99
2020/01/26 19:36 EST    2.86   3.31    4  241    4  39.6  39.2 1007.1 21.7  1.018 -99.9 -99.99 -9.99
2020/01/26 19:42 EST    2.94   3.40    4  248    5  39.6  39.2 1007.1 21.6  1.018 -99.9 -99.99 -9.99
2020/01/26 19:48 EST    3.01   3.47    2  265    5  39.2  39.2 1007.2 21.6  1.018 -99.9 -99.99 -9.99
2020/01/26 19:54 EST    3.09   3.54    4  247    5  39.0  39.2 1007.2 21.6  1.018 -99.9 -99.99 -9.99
2020/01/26 20:00 EST    3.15   3.61    3  258    5  38.8  39.0 1007.2 21.6  1.018 -99.9 -99.99 -9.99
2020/01/26 20:06 EST    3.22   3.65    3  262    5  39.0  39.0 1007.2 21.7  1.018 -99.9 -99.99 -9.99
2020/01/26 20:12 EST    3.28   3.68    4  251    7  39.0  39.0 1007.2 21.7  1.018 -99.9 -99.99 -9.99
2020/01/26 20:18 EST    3.33   3.70    6  244    7  38.8  39.0 1007.2 21.7  1.018 -99.9 -99.99 -9.99
2020/01/26 20:24 EST    3.38   3.76    5  251    7  38.7  39.0 1007.2 21.7  1.018 -99.9 -99.99 -9.99
2020/01/26 20:30 EST    3.43   3.80    4  255    6  38.5  39.2 1007.2 21.6  1.018 -99.9 -99.99 -9.99
2020/01/26 20:36 EST    3.46   3.84    5  255    7  38.5  39.2 1007.1 21.6  1.018 -99.9 -99.99 -9.99
2020/01/26 20:42 EST    3.50   3.87    6  255    8  38.5  39.2 1007.0 21.7  1.018 -99.9 -99.99 -9.99
2020/01/26 20:48 EST    3.52   3.90    5  251    8  38.7  39.2 1007.0 21.7  1.018 -99.9 -99.99 -9.99
2020/01/26 20:54 EST    3.55   3.90    5  257    8  38.7  39.2 1007.0 21.7  1.018 -99.9 -99.99 -9.99
2020/01/26 21:00 EST    3.56   3.92    3  265    6  38.7  39.2 1007.1 21.7  1.018 -99.9 -99.99 -9.99
2020/01/26 21:06 EST    3.57   3.96    3  269    6  38.5  39.2 1007.0 21.7  1.018 -99.9 -99.99 -9.99
2020/01/26 21:12 EST    3.57   3.97    5  256    9  38.7  39.2 1007.0 21.7  1.018 -99.9 -99.99 -9.99
2020/01/26 21:18 EST    3.57   3.95    5  261    9  38.8  39.4 1007.0 21.7  1.018 -99.9 -99.99 -9.99
2020/01/26 21:24 EST    3.56   3.95    5  259   10  38.8  39.2 1007.0 21.7  1.018 -99.9 -99.99 -9.99
2020/01/26 21:30 EST    3.54   3.94    7  251   11  38.8  39.4 1007.0 21.7  1.018 -99.9 -99.99 -9.99
2020/01/26 21:36 EST    3.51   3.90    6  251   10  39.0  39.4 1006.9 21.7  1.018 -99.9 -99.99 -9.99
2020/01/26 21:42 EST    3.48   3.88    6  253   10  39.0  39.4 1006.9 21.7  1.018 -99.9 -99.99 -9.99
2020/01/26 21:48 EST    3.45   3.86    4  252    7  39.0  39.4 1006.9 21.7  1.018 -99.9 -99.99 -9.99
2020/01/26 21:54 EST    3.40   3.82    3  264    7  39.0  39.4 1006.9 21.8  1.018 -99.9 -99.99 -9.99
2020/01/26 22:00 EST    3.35   3.78    4  252    7  39.0  39.4 1006.8 21.8  1.018 -99.9 -99.99 -9.99
2020/01/26 22:06 EST    3.30   3.71    4  261   10  39.0  39.4 1006.8 21.8  1.018 -99.9 -99.99 -9.99
2020/01/26 22:12 EST    3.23   3.67    5  248    7  39.2  39.4 1006.8 21.8  1.018 -99.9 -99.99 -9.99
2020/01/26 22:18 EST    3.17   3.61    4  258    7  39.2  39.6 1006.8 21.8  1.018 -99.9 -99.99 -9.99
2020/01/26 22:24 EST    3.09   3.55    6  247    8  39.2  39.6 1006.8 21.8  1.018 -99.9 -99.99 -9.99
2020/01/26 22:30 EST    3.01   3.49    6  240    8  39.4  39.6 1006.7 21.8  1.018 -99.9 -99.99 -9.99
2020/01/26 22:36 EST    2.93   3.42    7  240   10  39.6  39.6 1006.7 21.8  1.018 -99.9 -99.99 -9.99
2020/01/26 22:42 EST    2.84   3.33    7  249    9  39.7  39.7 1006.7 21.8  1.018 -99.9 -99.99 -9.99
2020/01/26 22:48 EST    2.74   3.24    5  250    9  39.7  39.7 1006.7 21.9  1.018 -99.9 -99.99 -9.99
2020/01/26 22:54 EST    2.65   3.16    3  259    9  39.6  39.7 1006.8 21.9  1.018 -99.9 -99.99 -9.99
2020/01/26 23:00 EST    2.54   3.09    3  253    7  39.7  39.9 1006.8 21.9  1.018 -99.9 -99.99 -9.99
2020/01/26 23:06 EST    2.44   3.01    4  263    7  39.7  39.9 1006.7 21.9  1.018 -99.9 -99.99 -9.99
2020/01/26 23:12 EST    2.33   2.90    6  246    8  39.9  39.9 1006.6 22.0  1.018 -99.9 -99.99 -9.99
2020/01/26 23:18 EST    2.22   2.81    4  260    8  39.7  39.9 1006.6 22.0  1.018 -99.9 -99.99 -9.99
2020/01/26 23:24 EST    2.10   2.70    2  271    5  39.7  40.1 1006.6 22.0  1.018 -99.9 -99.99 -9.99
2020/01/26 23:30 EST    1.98   2.61    4  251    5  39.7  40.1 1006.5 22.1  1.018 -99.9 -99.99 -9.99
2020/01/26 23:36 EST    1.87   2.49    4  242    5  39.7  40.1 1006.5 22.1  1.018 -99.9 -99.99 -9.99
2020/01/26 23:42 EST    1.75   2.37    7  235    8  39.9  40.1 1006.4 22.0  1.018 -99.9 -99.99 -9.99
2020/01/26 23:48 EST    1.63   2.25    5  245    8  39.7  40.1 1006.3 22.0  1.018 -99.9 -99.99 -9.99
2020/01/26 23:54 EST    1.51   2.14    5  251    8  39.7  40.1 1006.3 22.0  1.018 -99.9 -99.99 -9.99
2020/01/27 00:00 EST    1.39   2.07    6  245    8  39.7  39.9 1006.1 22.1  1.018 -99.9 -99.99 -9.99
2020/01/27 00:06 EST    1.28   1.98    5  247    8  39.7  39.9 1006.1 22.0  1.018 -99.9 -99.99 -9.99
2020/01/27 00:12 EST    1.16   1.89    4  254    7  39.7  39.7 1006.1 22.0  1.018 -99.9 -99.99 -9.99
2020/01/27 00:18 EST    1.05   1.77    4  252    6  39.6  39.7 1006.0 22.0  1.018 -99.9 -99.99 -9.99
2020/01/27 00:24 EST    0.94   1.67    4  249    7  39.6  39.6 1005.9 21.9  1.018 -99.9 -99.99 -9.99
2020/01/27 00:30 EST    0.83   1.58    5  247    8  39.6  39.6 1005.8 21.9  1.018 -99.9 -99.99 -9.99
2020/01/27 00:36 EST    0.72   1.47    3  261    7  39.4  39.6 1005.8 21.9  1.018 -99.9 -99.99 -9.99
2020/01/27 00:42 EST    0.62   1.39    4  250    7  39.4  39.6 1005.7 21.8  1.018 -99.9 -99.99 -9.99
2020/01/27 00:48 EST    0.53   1.31    5  245    7  39.4  39.4 1005.7 22.0  1.018 -99.9 -99.99 -9.99
2020/01/27 00:54 EST    0.44   1.19    7  247    9  39.4  39.4 1005.5 21.9  1.018 -99.9 -99.99 -9.99
2020/01/27 01:00 EST    0.35   1.07    5  258    8  39.2  39.2 1005.4 21.9  1.018 -99.9 -99.99 -9.99
2020/01/27 01:06 EST    0.27   1.01    6  243    8  39.2  39.2 1005.5 22.0  1.018 -99.9 -99.99 -9.99
2020/01/27 01:12 EST    0.20   0.95    7  243    9  39.0  39.2 1005.4 21.9  1.018 -99.9 -99.99 -9.99
2020/01/27 01:18 EST    0.13   0.86    8  243    9  39.0  39.2 1005.4 21.9  1.018 -99.9 -99.99 -9.99
2020/01/27 01:24 EST    0.07   0.78    6  247    9  39.0  39.2 1005.4 21.9  1.018 -99.9 -99.99 -9.99
2020/01/27 01:30 EST    0.01   0.73    6  242    8  38.8  39.2 1005.4 21.9  1.018 -99.9 -99.99 -9.99
2020/01/27 01:36 EST   -0.04   0.68    5  238    7  38.7  39.2 1005.3 22.0  1.018 -99.9 -99.99 -9.99
2020/01/27 01:42 EST   -0.08   0.62    7  232   10  38.5  39.2 1005.3 22.0  1.018 -99.9 -99.99 -9.99
2020/01/27 01:48 EST   -0.12   0.57    9  240   11  38.7  39.2 1005.2 21.9  1.018 -99.9 -99.99 -9.99
2020/01/27 01:54 EST   -0.15   0.54    9  238   10  38.8  39.2 1005.2 21.9  1.018 -99.9 -99.99 -9.99
2020/01/27 02:00 EST   -0.18   0.49    9  238   10  38.8  39.2 1005.2 22.0  1.018 -99.9 -99.99 -9.99
2020/01/27 02:06 EST   -0.19   0.45    7  242   10  38.7  39.2 1005.2 22.0  1.018 -99.9 -99.99 -9.99
2020/01/27 02:12 EST   -0.21   0.43    5  250    8  38.5  39.2 1005.2 21.9  1.018 -99.9 -99.99 -9.99
2020/01/27 02:18 EST   -0.21   0.46    6  248    8  38.5  39.2 1005.2 21.9  1.018 -99.9 -99.99 -9.99
2020/01/27 02:24 EST   -0.21   0.47    6  241    8  38.5  39.0 1005.1 21.8  1.018 -99.9 -99.99 -9.99
2020/01/27 02:30 EST   -0.21   0.47    5  243    7  38.3  39.2 1005.1 21.9  1.018 -99.9 -99.99 -9.99
2020/01/27 02:36 EST   -0.20   0.47    6  233    7  38.3  39.2 1005.1 21.9  1.018 -99.9 -99.99 -9.99
2020/01/27 02:42 EST   -0.18   0.47    6  242    7  38.1  39.4 1005.0 21.9  1.018 -99.9 -99.99 -9.99
2020/01/27 02:48 EST   -0.16   0.49    6  247    9  37.8  39.2 1005.0 21.8  1.018 -99.9 -99.99 -9.99
2020/01/27 02:54 EST   -0.14   0.53    6  246    8  37.9  39.0 1004.9 21.9  1.018 -99.9 -99.99 -9.99
2020/01/27 03:00 EST   -0.11   0.55    8  242    9  37.9  39.2 1004.8 21.8  1.018 -99.9 -99.99 -9.99
2020/01/27 03:06 EST   -0.08   0.56    8  234   10  38.1  39.2 1004.7 21.9  1.018 -99.9 -99.99 -9.99
2020/01/27 03:12 EST   -0.04   0.60    8  232    9  37.9  39.4 1004.6 21.9  1.018 -99.9 -99.99 -9.99
2020/01/27 03:18 EST   -0.01   0.65    8  236    9  37.9  39.2 1004.6 21.9  1.018 -99.9 -99.99 -9.99
2020/01/27 03:24 EST    0.04   0.71    8  238    9  37.8  39.2 1004.5 21.9  1.018 -99.9 -99.99 -9.99
2020/01/27 03:30 EST    0.08   0.74    9  230   10  37.6  39.2 1004.5 22.0  1.018 -99.9 -99.99 -9.99
2020/01/27 03:36 EST    0.12   0.78    9  230   10  37.4  39.2 1004.5 21.9  1.018 -99.9 -99.99 -9.99
2020/01/27 03:42 EST    0.17   0.82    9  233   11  37.4  39.0 1004.4 21.9  1.018 -99.9 -99.99 -9.99
2020/01/27 03:48 EST    0.22   0.86    9  242   12  37.4  39.0 1004.4 21.8  1.018 -99.9 -99.99 -9.99
2020/01/27 03:54 EST    0.27   0.91   10  240   12  37.4  39.0 1004.4 21.9  1.018 -99.9 -99.99 -9.99
2020/01/27 04:00 EST    0.32   0.95   10  237   12  37.2  39.0 1004.3 21.9  1.018 -99.9 -99.99 -9.99
2020/01/27 04:06 EST    0.37   1.01   10  239   13  37.0  39.0 1004.3 21.9  1.018 -99.9 -99.99 -9.99
2020/01/27 04:12 EST    0.42   1.07    9  241   13  36.9  39.0 1004.3 21.9  1.018 -99.9 -99.99 -9.99
2020/01/27 04:18 EST    0.48   1.14   10  243   12  36.7  39.0 1004.2 21.9  1.018 -99.9 -99.99 -9.99
2020/01/27 04:24 EST    0.53   1.19   10  238   13  36.7  39.0 1004.2 21.9  1.018 -99.9 -99.99 -9.99
2020/01/27 04:30 EST    0.59   1.28   11  239   13  36.7  39.0 1004.1 21.9  1.018 -99.9 -99.99 -9.99
2020/01/27 04:36 EST    0.64   1.38   11  242   14  36.5  39.0 1004.1 21.9  1.018 -99.9 -99.99 -9.99
2020/01/27 04:42 EST    0.70   1.44   11  241   14  36.3  39.0 1004.0 21.9  1.018 -99.9 -99.99 -9.99
2020/01/27 04:48 EST    0.76   1.51   12  242   14  36.3  39.0 1004.1 21.9  1.018 -99.9 -99.99 -9.99
2020/01/27 04:54 EST    0.82   1.59   10  250   15  36.1  39.0 1004.2 21.8  1.018 -99.9 -99.99 -9.99
2020/01/27 05:00 EST    0.88   1.66    9  252   13  36.0  39.0 1004.2 21.8  1.018 -99.9 -99.99 -9.99
2020/01/27 05:06 EST    0.94   1.72    8  255   13  35.8  39.0 1004.2 21.8  1.018 -99.9 -99.99 -9.99
2020/01/27 05:12 EST    1.00   1.78    9  250   13  36.0  39.0 1004.2 21.8  1.018 -99.9 -99.99 -9.99
2020/01/27 05:18 EST    1.06   1.87    9  252   13  35.8  39.0 1004.1 21.8  1.018 -99.9 -99.99 -9.99
2020/01/27 05:24 EST    1.13   1.93    9  250   14  35.8  39.0 1004.1 21.9  1.018 -99.9 -99.99 -9.99
2020/01/27 05:30 EST    1.19   1.99    8  248   13  35.8  39.0 1004.0 21.9  1.018 -99.9 -99.99 -9.99
2020/01/27 05:36 EST    1.26   2.07   10  245   14  35.6  39.0 1003.9 21.9  1.018 -99.9 -99.99 -9.99
2020/01/27 05:42 EST    1.33   2.16    9  248   12  35.8  39.0 1003.9 21.9  1.018 -99.9 -99.99 -9.99
2020/01/27 05:48 EST    1.40   2.22    7  254   11  35.6  39.0 1004.0 21.9  1.018 -99.9 -99.99 -9.99
2020/01/27 05:54 EST    1.47   2.34    9  245   12  35.8  39.0 1003.9 21.9  1.018 -99.9 -99.99 -9.99
2020/01/27 06:00 EST    1.54   2.41    8  251   13  35.8  39.0 1004.0 21.9  1.018 -99.9 -99.99 -9.99
2020/01/27 06:06 EST    1.62   2.47    9  250   12  35.8  39.0 1004.1 21.9  1.018 -99.9 -99.99 -9.99
2020/01/27 06:12 EST    1.69   2.54    8  253   12  35.8  39.0 1004.1 21.8  1.018 -99.9 -99.99 -9.99
2020/01/27 06:18 EST    1.77   2.57    6  251   13  36.0  39.0 1004.2 21.8  1.018 -99.9 -99.99 -9.99
2020/01/27 06:24 EST    1.85   2.66    6  259   11  36.1  39.0 1004.2 21.8  1.018 -99.9 -99.99 -9.99
2020/01/27 06:30 EST    1.93   2.75    6  256   11  36.1  39.0 1004.1 21.8  1.018 -99.9 -99.99 -9.99
2020/01/27 06:36 EST    2.01   2.82    7  250   11  36.0  39.0 1004.1 21.8  1.018 -99.9 -99.99 -9.99
2020/01/27 06:42 EST    2.09   2.88    8  249   11  35.8  39.0 1004.1 21.8  1.018 -99.9 -99.99 -9.99
2020/01/27 06:48 EST    2.18   2.95    6  249   11  35.8  39.0 1004.1 21.9  1.018 -99.9 -99.99 -9.99
2020/01/27 06:54 EST    2.26   3.00    6  255   10  35.8  39.0 1004.3 21.8  1.018 -99.9 -99.99 -9.99
2020/01/27 07:00 EST    2.35   3.08    5  254   10  35.6  39.0 1004.3 21.9  1.018 -99.9 -99.99 -9.99
2020/01/27 07:06 EST    2.43   3.18    5  256   10  35.6  39.0 1004.3 21.9  1.018 -99.9 -99.99 -9.99
2020/01/27 07:12 EST    2.52   3.25    8  247   11  36.0  39.0 1004.2 21.9  1.018 -99.9 -99.99 -9.99
2020/01/27 07:18 EST    2.60   3.30    7  251   12  35.8  39.0 1004.1 21.9  1.018 -99.9 -99.99 -9.99
2020/01/27 07:24 EST    2.68   3.37    5  260   11  35.8  39.0 1004.2 21.9  1.018 -99.9 -99.99 -9.99
2020/01/27 07:30 EST    2.77   3.46    4  266   10  35.8  39.0 1004.2 21.8  1.018 -99.9 -99.99 -9.99
2020/01/27 07:36 EST    2.85   3.55    6  261   11  35.8  39.0 1004.2 21.8  1.018 -99.9 -99.99 -9.99
2020/01/27 07:42 EST    2.93   3.64    5  262   10  36.0  39.0 1004.3 21.9  1.018 -99.9 -99.99 -9.99
2020/01/27 07:48 EST    3.01   3.69    4  268    9  36.0  39.0 1004.2 21.9  1.018 -99.9 -99.99 -9.99
2020/01/27 07:54 EST    3.08   3.75    6  259   10  36.5  39.0 1004.1 21.9  1.018 -99.9 -99.99 -9.99
2020/01/27 08:00 EST    3.15   3.80    5  261    9  36.7  39.0 1004.1 21.9  1.018 -99.9 -99.99 -9.99
2020/01/27 08:06 EST    3.23   3.88    6  263   11  36.7  39.0 1004.1 21.9  1.018 -99.9 -99.99 -9.99
2020/01/27 08:12 EST    3.29   3.97    4  267    9  36.7  39.0 1004.1 21.9  1.018 -99.9 -99.99 -9.99
2020/01/27 08:18 EST    3.36   4.04    5  272    9  36.5  39.0 1004.1 21.8  1.018 -99.9 -99.99 -9.99
2020/01/27 08:24 EST    3.42   4.07    4  272    8  36.5  39.0 1004.1 21.8  1.018 -99.9 -99.99 -9.99
2020/01/27 08:30 EST    3.47   4.10    6  268    9  36.5  39.0 1004.1 21.8  1.018 -99.9 -99.99 -9.99
2020/01/27 08:36 EST    3.52   4.16    5  265    9  36.5  39.0 1004.1 21.8  1.018 -99.9 -99.99 -9.99
2020/01/27 08:42 EST    3.57   4.23    5  268   11  36.5  39.0 1004.0 21.8  1.018 -99.9 -99.99 -9.99
2020/01/27 08:48 EST    3.61   4.30    5  264    9  36.7  39.0 1004.1 21.8  1.018 -99.9 -99.99 -9.99
2020/01/27 08:54 EST    3.65   4.32    6  271   10  36.9  39.0 1004.1 21.8  1.018 -99.9 -99.99 -9.99
2020/01/27 09:00 EST    3.68   4.36    5  268    9  36.9  39.0 1004.1 21.8  1.018 -99.9 -99.99 -9.99
2020/01/27 09:06 EST    3.71   4.38    5  269    9  37.0  38.8 1004.1 21.9  1.018 -99.9 -99.99 -9.99
2020/01/27 09:12 EST    3.73   4.42    5  274    8  37.4  38.8 1004.2 21.9  1.018 -99.9 -99.99 -9.99
2020/01/27 09:18 EST    3.75   4.46    4  263    8  37.6  39.0 1004.2 21.8  1.018 -99.9 -99.99 -9.99
2020/01/27 09:24 EST    3.76   4.47    4  268    9  37.8  39.6 1004.2 21.8  1.018 -99.9 -99.99 -9.99
2020/01/27 09:30 EST    3.76   4.47    4  270    9  38.8  39.6 1004.2 21.8  1.018 -99.9 -99.99 -9.99
2020/01/27 09:36 EST    3.76   4.46    6  259   10  38.8  39.6 1004.1 21.8  1.018 -99.9 -99.99 -9.99
2020/01/27 09:42 EST    3.75   4.47    6  273   10  39.2  39.7 1004.1 21.8  1.018 -99.9 -99.99 -9.99
2020/01/27 09:48 EST    3.74   4.45    4  276   11  39.6  39.7 1004.1 21.9  1.018 -99.9 -99.99 -9.99
2020/01/27 09:54 EST    3.72   4.45    6  263   10  39.6  39.6 1004.1 21.9  1.018 -99.9 -99.99 -9.99
2020/01/27 10:00 EST    3.69   4.47    4  265   10  39.7  39.6 1004.2 21.9  1.018 -99.9 -99.99 -9.99
2020/01/27 10:06 EST    3.66   4.41    4  273   10  39.9  39.6 1004.1 21.9  1.018 -99.9 -99.99 -9.99
2020/01/27 10:12 EST    3.62   4.38    5  280    9  40.3  39.6 1004.1 21.9  1.018 -99.9 -99.99 -9.99
2020/01/27 10:18 EST    3.58   4.36    5  263   10  40.3  39.7 1004.1 21.9  1.018 -99.9 -99.99 -9.99
2020/01/27 10:24 EST    3.53   4.32    6  272   11  40.3  39.7 1004.0 21.9  1.018 -99.9 -99.99 -9.99
2020/01/27 10:30 EST    3.47   4.25    6  264   12  40.3  39.9 1003.9 21.9  1.018 -99.9 -99.99 -9.99
2020/01/27 10:36 EST    3.41   4.18    4  272   12  40.6  40.1 1003.9 21.9  1.018 -99.9 -99.99 -9.99
2020/01/27 10:42 EST    3.34   4.11    5  267   11  40.6  40.1 1003.8 22.0  1.018 -99.9 -99.99 -9.99
2020/01/27 10:48 EST    3.27   4.03    6  266   12  40.6  40.1 1003.8 22.0  1.018 -99.9 -99.99 -9.99
2020/01/27 10:54 EST    3.19   3.95    7  273   11  40.8  40.3 1003.7 22.0  1.018 -99.9 -99.99 -9.99
2020/01/27 11:00 EST    3.11   3.88    5  277    9  41.0  40.3 1003.6 22.1  1.018 -99.9 -99.99 -9.99
2020/01/27 11:06 EST    3.02   3.78    6  280   12  41.0  40.3 1003.5 22.1  1.018 -99.9 -99.99 -9.99
2020/01/27 11:12 EST    2.93   3.68    5  280   10  41.2  40.3 1003.4 22.1  1.018 -99.9 -99.99 -9.99
2020/01/27 11:18 EST    2.83   3.60    5  278   10  41.4  40.3 1003.3 22.1  1.018 -99.9 -99.99 -9.99
2020/01/27 11:24 EST    2.73   3.52    6  261   12  41.0  40.3 1003.2 22.1  1.018 -99.9 -99.99 -9.99
2020/01/27 11:30 EST    2.63   3.36    7  281   11  41.4  40.3 1003.1 22.1  1.018 -99.9 -99.99 -9.99
2020/01/27 11:36 EST    2.52   3.23    5  274    9  41.5  40.1 1003.2 22.1  1.018 -99.9 -99.99 -9.99
2020/01/27 11:42 EST    2.41   3.10    6  279   11  41.7  40.1 1003.1 22.1  1.018 -99.9 -99.99 -9.99
2020/01/27 11:48 EST    2.30   2.98    5  281   10  41.9  40.3 1003.1 22.1  1.018 -99.9 -99.99 -9.99
2020/01/27 11:54 EST    2.19   2.86    7  279   12  42.1  40.3 1003.0 22.1  1.018 -99.9 -99.99 -9.99
2020/01/27 12:00 EST    2.07   2.72    7  283   12  42.4  40.5 1002.9 22.1  1.018 -99.9 -99.99 -9.99
2020/01/27 12:06 EST    1.95   2.63    7  279   11  42.8  40.5 1002.8 22.1  1.018 -99.9 -99.99 -9.99
2020/01/27 12:12 EST    1.84   2.50    8  276   14  43.0  40.5 1002.7 22.1  1.018 -99.9 -99.99 -9.99
2020/01/27 12:18 EST    1.72   2.35    6  266   13  42.4  40.5 1002.6 22.1  1.018 -99.9 -99.99 -9.99
2020/01/27 12:24 EST    1.60   2.22    6  272   11  42.8  40.5 1002.6 22.2  1.019 -99.9 -99.99 -9.99
2020/01/27 12:30 EST    1.49   2.13    7  260   14  42.6  40.5 1002.6 22.2  1.018 -99.9 -99.99 -9.99
2020/01/27 12:36 EST    1.37   2.02    7  259   11  43.0  40.5 1002.5 22.2  1.019 -99.9 -99.99 -9.99
2020/01/27 12:42 EST    1.26   1.88    4  279    9  43.9  40.5 1002.4 22.3  1.019 -99.9 -99.99 -9.99
2020/01/27 12:48 EST    1.15   1.77    5  274   11  43.5  40.3 1002.4 22.3  1.019 -99.9 -99.99 -9.99
2020/01/27 12:54 EST    1.04   1.67    5  271   10  43.7  40.3 1002.3 22.1  1.018 -99.9 -99.99 -9.99
2020/01/27 13:00 EST    0.93   1.56    5  274   11  44.1  40.3 1002.3 22.0  1.018 -99.9 -99.99 -9.99
2020/01/27 13:06 EST    0.83   1.41    5  276   11  43.7  40.1 1002.2 22.1  1.018 -99.9 -99.99 -9.99
2020/01/27 13:12 EST    0.73   1.31    8  276   16  44.1  40.1 1002.2 22.0  1.018 -99.9 -99.99 -9.99
2020/01/27 13:18 EST    0.64   1.22    7  291   11  43.9  40.1 1002.1 21.9  1.018 -99.9 -99.99 -9.99
2020/01/27 13:24 EST    0.55   1.12    7  282   13  43.7  40.1 1002.0 21.9  1.018 -99.9 -99.99 -9.99
2020/01/27 13:30 EST    0.47   1.01    8  276   13  43.5  39.9 1002.0 22.0  1.018 -99.9 -99.99 -9.99
2020/01/27 13:36 EST    0.39   0.93    5  287   10  43.7  39.9 1001.9 22.0  1.018 -99.9 -99.99 -9.99
2020/01/27 13:42 EST    0.31   0.88    6  294   11  43.7  39.9 1001.9 22.0  1.018 -99.9 -99.99 -9.99
2020/01/27 13:48 EST    0.25   0.79    5  276   10  43.7  39.9 1001.8 22.0  1.018 -99.9 -99.99 -9.99
2020/01/27 13:54 EST    0.18   0.70    7  286   10  43.9  40.1 1001.8 21.9  1.018 -99.9 -99.99 -9.99
2020/01/27 14:00 EST    0.13   0.63    8  289   13  43.7  40.1 1001.8 22.0  1.018 -99.9 -99.99 -9.99
2020/01/27 14:06 EST    0.08   0.57    8  298   12  43.7  40.1 1001.8 22.0  1.018 -99.9 -99.99 -9.99
2020/01/27 14:12 EST    0.04   0.51    7  296   12  43.7  40.1 1001.8 22.0  1.018 -99.9 -99.99 -9.99
2020/01/27 14:18 EST   -0.00   0.48    6  283   10  43.9  40.1 1001.8 22.0  1.018 -99.9 -99.99 -9.99
2020/01/27 14:24 EST   -0.04   0.47    6  265   11  43.9  40.1 1001.7 22.0  1.018 -99.9 -99.99 -9.99
2020/01/27 14:30 EST   -0.06   0.46    6  266   10  43.5  39.9 1001.7 22.0  1.018 -99.9 -99.99 -9.99
2020/01/27 14:36 EST   -0.08   0.42    5  265   10  43.3  39.9 1001.7 22.0  1.018 -99.9 -99.99 -9.99
2020/01/27 14:42 EST   -0.10   0.40    7  278   12  43.9  39.9 1001.7 22.0  1.018 -99.9 -99.99 -9.99
2020/01/27 14:48 EST   -0.10   0.40    3  272    9  43.9  39.9 1001.7 22.0  1.018 -99.9 -99.99 -9.99
2020/01/27 14:54 EST   -0.11   0.40    9  293   13  44.1  39.9 1001.7 22.1  1.018 -99.9 -99.99 -9.99
2020/01/27 15:00 EST   -0.11   0.39    7  287   13  43.9  39.7 1001.8 22.1  1.018 -99.9 -99.99 -9.99
2020/01/27 15:06 EST   -0.10   0.40    8  286   11  43.9  39.9 1001.9 22.0  1.018 -99.9 -99.99 -9.99
2020/01/27 15:12 EST   -0.09   0.39    8  287   13  43.9  39.9 1001.9 22.0  1.018 -99.9 -99.99 -9.99
2020/01/27 15:18 EST   -0.08   0.40    8  285   15  43.7  39.9 1001.9 22.0  1.018 -99.9 -99.99 -9.99
2020/01/27 15:24 EST   -0.06   0.38   10  295   13  43.7  39.9 1001.9 22.1  1.018 -99.9 -99.99 -9.99
2020/01/27 15:30 EST   -0.03   0.41    8  282   13  43.7  39.9 1002.0 22.1  1.018 -99.9 -99.99 -9.99
2020/01/27 15:36 EST   -0.01   0.45    7  279   13  43.5  39.9 1002.0 22.1  1.018 -99.9 -99.99 -9.99
2020/01/27 15:42 EST    0.02   0.45    8  287   11  43.7  39.9 1002.0 22.1  1.018 -99.9 -99.99 -9.99
2020/01/27 15:48 EST    0.05   0.47    6  282   10  43.7  39.9 1002.1 22.1  1.018 -99.9 -99.99 -9.99
2020/01/27 15:54 EST    0.08   0.50    6  288   11  43.5  39.9 1002.1 22.1  1.018 -99.9 -99.99 -9.99
2020/01/27 16:00 EST    0.12   0.53    5  284   11  43.7  39.9 1002.2 22.0  1.018 -99.9 -99.99 -9.99
2020/01/27 16:06 EST    0.16   0.54    6  287   11  43.7  39.9 1002.2 22.0  1.018 -99.9 -99.99 -9.99
2020/01/27 16:12 EST    0.20   0.59    7  290   11  43.5  39.9 1002.3 22.0  1.018 -99.9 -99.99 -9.99
2020/01/27 16:18 EST    0.24   0.64    8  306   14  43.3  39.9 1002.4 22.0  1.018 -99.9 -99.99 -9.99
2020/01/27 16:24 EST    0.28   0.69    9  296   15  43.3  39.9 1002.4 22.0  1.018 -99.9 -99.99 -9.99
2020/01/27 16:30 EST    0.33   0.73    7  295   11  43.2  39.9 1002.5 22.0  1.018 -99.9 -99.99 -9.99
2020/01/27 16:36 EST    0.37   0.76    7  286   12  43.2  39.7 1002.5 22.1  1.018 -99.9 -99.99 -9.99
2020/01/27 16:42 EST    0.42   0.83    6  291   11  43.2  39.7 1002.6 22.0  1.018 -99.9 -99.99 -9.99
2020/01/27 16:48 EST    0.46   0.88    7  287   10  43.0  39.7 1002.7 22.0  1.018 -99.9 -99.99 -9.99
2020/01/27 16:54 EST    0.51   0.92    6  287   10  43.0  39.7 1002.7 22.0  1.018 -99.9 -99.99 -9.99
2020/01/27 17:00 EST    0.56   0.97    8  285   11  43.0  39.7 1002.8 22.0  1.018 -99.9 -99.99 -9.99
2020/01/27 17:06 EST    0.61   1.01    7  290   10  42.8  39.7 1002.9 22.0  1.018 -99.9 -99.99 -9.99
2020/01/27 17:12 EST    0.66   1.07    7  285   10  42.8  39.7 1002.9 22.0  1.018 -99.9 -99.99 -9.99
2020/01/27 17:18 EST    0.71   1.15    8  286   13  42.6  39.7 1003.0 22.0  1.018 -99.9 -99.99 -9.99
2020/01/27 17:24 EST    0.77   1.20    5  295    9  42.6  39.7 1003.1 22.0  1.018 -99.9 -99.99 -9.99
2020/01/27 17:30 EST    0.82   1.28    6  290   11  42.6  39.6 1003.1 22.0  1.018 -99.9 -99.99 -9.99
2020/01/27 17:36 EST    0.88   1.32    6  283   10  42.6  39.6 1003.1 22.0  1.018 -99.9 -99.99 -9.99
2020/01/27 17:42 EST    0.93   1.39    7  288   12  42.4  39.6 1003.2 21.9  1.018 -99.9 -99.99 -9.99
2020/01/27 17:48 EST    0.99   1.45    6  281   11  42.3  39.6 1003.2 21.9  1.018 -99.9 -99.99 -9.99
2020/01/27 17:54 EST    1.05   1.50    7  283   11  42.1  39.6 1003.3 21.9  1.018 -99.9 -99.99 -9.99
2020/01/27 18:00 EST    1.12   1.59    7  288   10  42.3  39.6 1003.4 21.9  1.018 -99.9 -99.99 -9.99
2020/01/27 18:06 EST    1.18   1.66    7  286   12  42.3  39.6 1003.5 21.9  1.018 -99.9 -99.99 -9.99
2020/01/27 18:12 EST    1.24   1.72    6  286    9  42.1  39.6 1003.5 21.9  1.018 -99.9 -99.99 -9.99
2020/01/27 18:18 EST    1.31   1.80    6  282    9  42.1  39.6 1003.6 21.9  1.018 -99.9 -99.99 -9.99
2020/01/27 18:24 EST    1.38   1.87    6  285   10  42.1  39.6 1003.6 21.9  1.018 -99.9 -99.99 -9.99
2020/01/27 18:30 EST    1.45   1.95    8  282   12  42.1  39.6 1003.6 21.9  1.018 -99.9 -99.99 -9.99
2020/01/27 18:36 EST    1.52   2.02    9  295   11  41.9  39.6 1003.6 21.9  1.018 -99.9 -99.99 -9.99
2020/01/27 18:42 EST    1.59   2.10    5  287   10  41.9  39.6 1003.7 21.9  1.018 -99.9 -99.99 -9.99
2020/01/27 18:48 EST    1.67   2.20    8  295   11  41.7  39.4 1003.7 22.0  1.018 -99.9 -99.99 -9.99
2020/01/27 18:54 EST    1.74   2.30    8  284   11  41.9  39.4 1003.7 21.9  1.018 -99.9 -99.99 -9.99
2020/01/27 19:00 EST    1.82   2.38    6  283   10  41.9  39.4 1003.7 21.9  1.018 -99.9 -99.99 -9.99
2020/01/27 19:06 EST    1.90   2.44    5  284   10  41.7  39.4 1003.8 21.9  1.018 -99.9 -99.99 -9.99
2020/01/27 19:12 EST    1.98   2.52    5  285    8  41.7  39.4 1003.8 21.9  1.018 -99.9 -99.99 -9.99
2020/01/27 19:18 EST    2.06   2.57    6  285   10  41.5  39.4 1003.8 22.0  1.018 -99.9 -99.99 -9.99
2020/01/27 19:24 EST    2.14   2.64    7  284   11  41.7  39.4 1003.9 21.9  1.018 -99.9 -99.99 -9.99
2020/01/27 19:30 EST    2.22   2.74    7  290   11  41.5  39.4 1003.9 21.9  1.018 -99.9 -99.99 -9.99
2020/01/27 19:36 EST    2.30   2.83    8  284   12  41.7  39.4 1003.9 21.9  1.018 -99.9 -99.99 -9.99
2020/01/27 19:42 EST    2.38   2.90    7  284   10  41.7  39.4 1004.0 21.9  1.018 -99.9 -99.99 -9.99
2020/01/27 19:48 EST    2.46   2.93    6  282    9  41.5  39.4 1004.0 21.9  1.018 -99.9 -99.99 -9.99
2020/01/27 19:54 EST    2.54   3.00    7  289   10  41.4  39.4 1004.1 21.9  1.018 -99.9 -99.99 -9.99
2020/01/27 20:00 EST    2.62   3.07    7  290   11  41.5  39.4 1004.1 21.9  1.018 -99.9 -99.99 -9.99
2020/01/27 20:06 EST    2.69   3.13    8  283   12  41.5  39.4 1004.1 21.9  1.018 -99.9 -99.99 -9.99
2020/01/27 20:12 EST    2.77   3.19    6  287   12  41.4  39.4 1004.1 21.8  1.018 -99.9 -99.99 -9.99
2020/01/27 20:18 EST    2.84   3.27    7  287   10  41.4  39.4 1004.1 21.8  1.018 -99.9 -99.99 -9.99
2020/01/27 20:24 EST    2.91   3.32    6  287   12  41.4  39.4 1004.2 21.9  1.018 -99.9 -99.99 -9.99
2020/01/27 20:30 EST    2.97 -99.99 -999 -999 -999 -99.9 -99.9 -999.9 -9.9 -9.999 -99.9 -99.99 -9.99
2020/01/27 20:36 EST    3.04 -99.99 -999 -999 -999 -99.9 -99.9 -999.9 -9.9 -9.999 -99.9 -99.99 -9.99
2020/01/27 20:42 EST    3.10 -99.99 -999 -999 -999 -99.9 -99.9 -999.9 -9.9 -9.999 -99.9 -99.99 -9.99